<?xml version="1.0" encoding="UTF-8" standalone="no" ?>
<gpx xmlns="http://www.topografix.com/GPX/1/1" xmlns:xsi="http://www.w3.org/2001/XMLSchema-instance" xsi:schemaLocation="http://www.topografix.com/GPX/1/1 http://www.topografix.com/GPX/1/1/gpx.xsd" version="1.1" creator="VisuGPX - https://www.visugpx.com">
  <metadata>
    <name>Combelles 2013</name>
    <desc><![CDATA[Circuit ayant servie en 2010 aux championnats de France de VTT.]]></desc>
  </metadata>
  <trk>
    <name><![CDATA[2013-01-24T08_3]]></name>
    <trkseg>
      <trkpt lat="44.34143" lon="2.58516">
        <ele>540.422</ele>
        <time>2013-01-24T08:38:54Z</time>
      </trkpt>
      <trkpt lat="44.34141" lon="2.5852">
        <ele>539.963</ele>
        <time>2013-01-24T08:38:56Z</time>
      </trkpt>
      <trkpt lat="44.34134" lon="2.58537">
        <ele>539.593</ele>
        <time>2013-01-24T08:39:05Z</time>
      </trkpt>
      <trkpt lat="44.34127" lon="2.58554">
        <ele>539.324</ele>
        <time>2013-01-24T08:39:11Z</time>
      </trkpt>
      <trkpt lat="44.3412" lon="2.58572">
        <ele>541.235</ele>
        <time>2013-01-24T08:39:18Z</time>
      </trkpt>
      <trkpt lat="44.34118" lon="2.58581">
        <ele>540.965</ele>
        <time>2013-01-24T08:39:24Z</time>
      </trkpt>
      <trkpt lat="44.34116" lon="2.58587">
        <ele>541.746</ele>
        <time>2013-01-24T08:39:34Z</time>
      </trkpt>
      <trkpt lat="44.34109" lon="2.58602">
        <ele>544.526</ele>
        <time>2013-01-24T08:39:39Z</time>
      </trkpt>
      <trkpt lat="44.34104" lon="2.58615">
        <ele>545.296</ele>
        <time>2013-01-24T08:39:43Z</time>
      </trkpt>
      <trkpt lat="44.341" lon="2.58622">
        <ele>545.725</ele>
        <time>2013-01-24T08:39:45Z</time>
      </trkpt>
      <trkpt lat="44.34092" lon="2.58642">
        <ele>543.965</ele>
        <time>2013-01-24T08:39:51Z</time>
      </trkpt>
      <trkpt lat="44.34081" lon="2.58661">
        <ele>541.603</ele>
        <time>2013-01-24T08:39:57Z</time>
      </trkpt>
      <trkpt lat="44.34065" lon="2.58682">
        <ele>540.184</ele>
        <time>2013-01-24T08:40:03Z</time>
      </trkpt>
      <trkpt lat="44.34058" lon="2.58688">
        <ele>539.453</ele>
        <time>2013-01-24T08:40:05Z</time>
      </trkpt>
      <trkpt lat="44.34052" lon="2.58693">
        <ele>537.456</ele>
        <time>2013-01-24T08:40:11Z</time>
      </trkpt>
      <trkpt lat="44.34008" lon="2.58697">
        <ele>544.663</ele>
        <time>2013-01-24T08:41:20Z</time>
      </trkpt>
      <trkpt lat="44.34004" lon="2.58695">
        <ele>544.313</ele>
        <time>2013-01-24T08:41:21Z</time>
      </trkpt>
      <trkpt lat="44.33984" lon="2.58685">
        <ele>543.413</ele>
        <time>2013-01-24T08:41:27Z</time>
      </trkpt>
      <trkpt lat="44.33969" lon="2.58669">
        <ele>543.594</ele>
        <time>2013-01-24T08:41:32Z</time>
      </trkpt>
      <trkpt lat="44.33957" lon="2.58655">
        <ele>544.325</ele>
        <time>2013-01-24T08:41:37Z</time>
      </trkpt>
      <trkpt lat="44.33946" lon="2.58635">
        <ele>547.005</ele>
        <time>2013-01-24T08:41:42Z</time>
      </trkpt>
      <trkpt lat="44.33938" lon="2.58618">
        <ele>548.134</ele>
        <time>2013-01-24T08:41:47Z</time>
      </trkpt>
      <trkpt lat="44.33926" lon="2.58597">
        <ele>544.773</ele>
        <time>2013-01-24T08:41:53Z</time>
      </trkpt>
      <trkpt lat="44.33917" lon="2.5858">
        <ele>542.502</ele>
        <time>2013-01-24T08:41:58Z</time>
      </trkpt>
      <trkpt lat="44.33908" lon="2.5857">
        <ele>541.633</ele>
        <time>2013-01-24T08:42:03Z</time>
      </trkpt>
      <trkpt lat="44.33896" lon="2.58562">
        <ele>544.024</ele>
        <time>2013-01-24T08:42:09Z</time>
      </trkpt>
      <trkpt lat="44.33895" lon="2.58561">
        <ele>544.324</ele>
        <time>2013-01-24T08:42:10Z</time>
      </trkpt>
      <trkpt lat="44.33893" lon="2.58561">
        <ele>547.675</ele>
        <time>2013-01-24T08:42:16Z</time>
      </trkpt>
      <trkpt lat="44.33892" lon="2.58561">
        <ele>548.535</ele>
        <time>2013-01-24T08:42:19Z</time>
      </trkpt>
      <trkpt lat="44.33887" lon="2.58562">
        <ele>551.025</ele>
        <time>2013-01-24T08:42:26Z</time>
      </trkpt>
      <trkpt lat="44.33886" lon="2.58562">
        <ele>552.984</ele>
        <time>2013-01-24T08:42:29Z</time>
      </trkpt>
      <trkpt lat="44.33883" lon="2.58562">
        <ele>554.726</ele>
        <time>2013-01-24T08:42:32Z</time>
      </trkpt>
      <trkpt lat="44.33879" lon="2.58563">
        <ele>556.152</ele>
        <time>2013-01-24T08:42:47Z</time>
      </trkpt>
      <trkpt lat="44.33879" lon="2.58563">
        <ele>555.781</ele>
        <time>2013-01-24T08:42:48Z</time>
      </trkpt>
      <trkpt lat="44.33879" lon="2.58563">
        <ele>548.801</ele>
        <time>2013-01-24T08:43:00Z</time>
      </trkpt>
      <trkpt lat="44.33878" lon="2.58563">
        <ele>548.781</ele>
        <time>2013-01-24T08:43:05Z</time>
      </trkpt>
      <trkpt lat="44.33872" lon="2.58569">
        <ele>548.292</ele>
        <time>2013-01-24T08:43:09Z</time>
      </trkpt>
      <trkpt lat="44.33867" lon="2.58575">
        <ele>547.611</ele>
        <time>2013-01-24T08:43:14Z</time>
      </trkpt>
      <trkpt lat="44.33862" lon="2.58584">
        <ele>546.761</ele>
        <time>2013-01-24T08:43:19Z</time>
      </trkpt>
      <trkpt lat="44.33859" lon="2.5859">
        <ele>547.942</ele>
        <time>2013-01-24T08:43:23Z</time>
      </trkpt>
      <trkpt lat="44.33857" lon="2.58593">
        <ele>548.011</ele>
        <time>2013-01-24T08:43:29Z</time>
      </trkpt>
      <trkpt lat="44.33857" lon="2.58593">
        <ele>547.901</ele>
        <time>2013-01-24T08:43:34Z</time>
      </trkpt>
      <trkpt lat="44.33799" lon="2.58559">
        <ele>550.242</ele>
        <time>2013-01-24T08:43:39Z</time>
      </trkpt>
      <trkpt lat="44.33787" lon="2.58572">
        <ele>553.142</ele>
        <time>2013-01-24T08:43:44Z</time>
      </trkpt>
      <trkpt lat="44.33776" lon="2.58585">
        <ele>551.461</ele>
        <time>2013-01-24T08:43:49Z</time>
      </trkpt>
      <trkpt lat="44.33769" lon="2.58596">
        <ele>554.363</ele>
        <time>2013-01-24T08:43:53Z</time>
      </trkpt>
      <trkpt lat="44.33762" lon="2.58609">
        <ele>556.393</ele>
        <time>2013-01-24T08:43:57Z</time>
      </trkpt>
      <trkpt lat="44.33753" lon="2.58629">
        <ele>557.803</ele>
        <time>2013-01-24T08:44:03Z</time>
      </trkpt>
      <trkpt lat="44.33748" lon="2.58642">
        <ele>556.572</ele>
        <time>2013-01-24T08:44:07Z</time>
      </trkpt>
      <trkpt lat="44.33743" lon="2.58656">
        <ele>555.863</ele>
        <time>2013-01-24T08:44:11Z</time>
      </trkpt>
      <trkpt lat="44.33733" lon="2.58677">
        <ele>553.973</ele>
        <time>2013-01-24T08:44:17Z</time>
      </trkpt>
      <trkpt lat="44.33722" lon="2.58696">
        <ele>551.513</ele>
        <time>2013-01-24T08:44:23Z</time>
      </trkpt>
      <trkpt lat="44.33736" lon="2.58768">
        <ele>550.082</ele>
        <time>2013-01-24T08:44:28Z</time>
      </trkpt>
      <trkpt lat="44.33731" lon="2.58773">
        <ele>549.703</ele>
        <time>2013-01-24T08:44:33Z</time>
      </trkpt>
      <trkpt lat="44.3372" lon="2.58785">
        <ele>550.162</ele>
        <time>2013-01-24T08:44:38Z</time>
      </trkpt>
      <trkpt lat="44.3371" lon="2.58797">
        <ele>550.362</ele>
        <time>2013-01-24T08:44:43Z</time>
      </trkpt>
      <trkpt lat="44.337" lon="2.58809">
        <ele>550.132</ele>
        <time>2013-01-24T08:44:48Z</time>
      </trkpt>
      <trkpt lat="44.33685" lon="2.58823">
        <ele>549.552</ele>
        <time>2013-01-24T08:44:53Z</time>
      </trkpt>
      <trkpt lat="44.33673" lon="2.58829">
        <ele>549.032</ele>
        <time>2013-01-24T08:44:56Z</time>
      </trkpt>
      <trkpt lat="44.3366" lon="2.58835">
        <ele>548.251</ele>
        <time>2013-01-24T08:45:00Z</time>
      </trkpt>
      <trkpt lat="44.33644" lon="2.5884">
        <ele>546.432</ele>
        <time>2013-01-24T08:45:05Z</time>
      </trkpt>
      <trkpt lat="44.3362" lon="2.58843">
        <ele>545.993</ele>
        <time>2013-01-24T08:45:11Z</time>
      </trkpt>
      <trkpt lat="44.33607" lon="2.58841">
        <ele>545.802</ele>
        <time>2013-01-24T08:45:15Z</time>
      </trkpt>
      <trkpt lat="44.33597" lon="2.5884">
        <ele>545.823</ele>
        <time>2013-01-24T08:45:18Z</time>
      </trkpt>
      <trkpt lat="44.33576" lon="2.58814">
        <ele>545.482</ele>
        <time>2013-01-24T08:45:21Z</time>
      </trkpt>
      <trkpt lat="44.33569" lon="2.58803">
        <ele>545.653</ele>
        <time>2013-01-24T08:45:24Z</time>
      </trkpt>
      <trkpt lat="44.33556" lon="2.58782">
        <ele>546.303</ele>
        <time>2013-01-24T08:45:28Z</time>
      </trkpt>
      <trkpt lat="44.33556" lon="2.58782">
        <ele>547.193</ele>
        <time>2013-01-24T08:45:31Z</time>
      </trkpt>
      <trkpt lat="44.33556" lon="2.58782">
        <ele>548.693</ele>
        <time>2013-01-24T08:45:35Z</time>
      </trkpt>
      <trkpt lat="44.33564" lon="2.58794">
        <ele>550.464</ele>
        <time>2013-01-24T08:45:40Z</time>
      </trkpt>
      <trkpt lat="44.33563" lon="2.58792">
        <ele>550.714</ele>
        <time>2013-01-24T08:45:41Z</time>
      </trkpt>
      <trkpt lat="44.33553" lon="2.58776">
        <ele>551.503</ele>
        <time>2013-01-24T08:45:48Z</time>
      </trkpt>
      <trkpt lat="44.33547" lon="2.58767">
        <ele>553.503</ele>
        <time>2013-01-24T08:45:52Z</time>
      </trkpt>
      <trkpt lat="44.33555" lon="2.58783">
        <ele>554.832</ele>
        <time>2013-01-24T08:45:56Z</time>
      </trkpt>
      <trkpt lat="44.33544" lon="2.58789">
        <ele>557.844</ele>
        <time>2013-01-24T08:46:01Z</time>
      </trkpt>
      <trkpt lat="44.33529" lon="2.58739">
        <ele>559.862</ele>
        <time>2013-01-24T08:46:06Z</time>
      </trkpt>
      <trkpt lat="44.33567" lon="2.58858">
        <ele>561.213</ele>
        <time>2013-01-24T08:46:11Z</time>
      </trkpt>
      <trkpt lat="44.33557" lon="2.58874">
        <ele>561.322</ele>
        <time>2013-01-24T08:46:18Z</time>
      </trkpt>
      <trkpt lat="44.33549" lon="2.58887">
        <ele>562.673</ele>
        <time>2013-01-24T08:46:24Z</time>
      </trkpt>
      <trkpt lat="44.33543" lon="2.58897">
        <ele>563.193</ele>
        <time>2013-01-24T08:46:28Z</time>
      </trkpt>
      <trkpt lat="44.33537" lon="2.5891">
        <ele>560.211</ele>
        <time>2013-01-24T08:46:33Z</time>
      </trkpt>
      <trkpt lat="44.33531" lon="2.58927">
        <ele>558.961</ele>
        <time>2013-01-24T08:46:38Z</time>
      </trkpt>
      <trkpt lat="44.33526" lon="2.58939">
        <ele>559.692</ele>
        <time>2013-01-24T08:46:42Z</time>
      </trkpt>
      <trkpt lat="44.33519" lon="2.58956">
        <ele>559.562</ele>
        <time>2013-01-24T08:46:48Z</time>
      </trkpt>
      <trkpt lat="44.33517" lon="2.5896">
        <ele>558.522</ele>
        <time>2013-01-24T08:46:49Z</time>
      </trkpt>
      <trkpt lat="44.33513" lon="2.58969">
        <ele>556.541</ele>
        <time>2013-01-24T08:46:52Z</time>
      </trkpt>
      <trkpt lat="44.33508" lon="2.5898">
        <ele>556.051</ele>
        <time>2013-01-24T08:46:57Z</time>
      </trkpt>
      <trkpt lat="44.33503" lon="2.58991">
        <ele>554.451</ele>
        <time>2013-01-24T08:47:02Z</time>
      </trkpt>
      <trkpt lat="44.33496" lon="2.59005">
        <ele>553.841</ele>
        <time>2013-01-24T08:47:08Z</time>
      </trkpt>
      <trkpt lat="44.33495" lon="2.59008">
        <ele>554.221</ele>
        <time>2013-01-24T08:47:09Z</time>
      </trkpt>
      <trkpt lat="44.33485" lon="2.59029">
        <ele>556.391</ele>
        <time>2013-01-24T08:47:15Z</time>
      </trkpt>
      <trkpt lat="44.33484" lon="2.59032">
        <ele>556.55</ele>
        <time>2013-01-24T08:47:16Z</time>
      </trkpt>
      <trkpt lat="44.33479" lon="2.59048">
        <ele>557.45</ele>
        <time>2013-01-24T08:47:22Z</time>
      </trkpt>
      <trkpt lat="44.33477" lon="2.59059">
        <ele>562.092</ele>
        <time>2013-01-24T08:47:26Z</time>
      </trkpt>
      <trkpt lat="44.33477" lon="2.59065">
        <ele>565.263</ele>
        <time>2013-01-24T08:47:28Z</time>
      </trkpt>
      <trkpt lat="44.33476" lon="2.59079">
        <ele>573.104</ele>
        <time>2013-01-24T08:47:34Z</time>
      </trkpt>
      <trkpt lat="44.33476" lon="2.5908">
        <ele>573.875</ele>
        <time>2013-01-24T08:47:35Z</time>
      </trkpt>
      <trkpt lat="44.33475" lon="2.5909">
        <ele>571.864</ele>
        <time>2013-01-24T08:47:41Z</time>
      </trkpt>
      <trkpt lat="44.33474" lon="2.59101">
        <ele>571.122</ele>
        <time>2013-01-24T08:47:47Z</time>
      </trkpt>
      <trkpt lat="44.33474" lon="2.59104">
        <ele>572.113</ele>
        <time>2013-01-24T08:47:49Z</time>
      </trkpt>
      <trkpt lat="44.33474" lon="2.5911">
        <ele>571.933</ele>
        <time>2013-01-24T08:47:54Z</time>
      </trkpt>
      <trkpt lat="44.33473" lon="2.59117">
        <ele>572.332</ele>
        <time>2013-01-24T08:47:59Z</time>
      </trkpt>
      <trkpt lat="44.33405" lon="2.5911">
        <ele>572.262</ele>
        <time>2013-01-24T08:48:01Z</time>
      </trkpt>
      <trkpt lat="44.33397" lon="2.59108">
        <ele>572.802</ele>
        <time>2013-01-24T08:48:06Z</time>
      </trkpt>
      <trkpt lat="44.33396" lon="2.59097">
        <ele>572.533</ele>
        <time>2013-01-24T08:48:11Z</time>
      </trkpt>
      <trkpt lat="44.334" lon="2.5909">
        <ele>573.503</ele>
        <time>2013-01-24T08:48:15Z</time>
      </trkpt>
      <trkpt lat="44.33402" lon="2.59079">
        <ele>574.933</ele>
        <time>2013-01-24T08:48:22Z</time>
      </trkpt>
      <trkpt lat="44.33403" lon="2.59072">
        <ele>573.912</ele>
        <time>2013-01-24T08:48:28Z</time>
      </trkpt>
      <trkpt lat="44.33404" lon="2.59069">
        <ele>572.762</ele>
        <time>2013-01-24T08:48:30Z</time>
      </trkpt>
      <trkpt lat="44.33405" lon="2.59063">
        <ele>571.322</ele>
        <time>2013-01-24T08:48:34Z</time>
      </trkpt>
      <trkpt lat="44.33407" lon="2.59058">
        <ele>574.162</ele>
        <time>2013-01-24T08:48:37Z</time>
      </trkpt>
      <trkpt lat="44.33407" lon="2.59048">
        <ele>576.253</ele>
        <time>2013-01-24T08:48:42Z</time>
      </trkpt>
      <trkpt lat="44.33407" lon="2.59032">
        <ele>578.593</ele>
        <time>2013-01-24T08:48:48Z</time>
      </trkpt>
      <trkpt lat="44.33407" lon="2.59016">
        <ele>580.483</ele>
        <time>2013-01-24T08:48:53Z</time>
      </trkpt>
      <trkpt lat="44.33412" lon="2.59">
        <ele>580.543</ele>
        <time>2013-01-24T08:48:57Z</time>
      </trkpt>
      <trkpt lat="44.33414" lon="2.58989">
        <ele>580.412</ele>
        <time>2013-01-24T08:49:00Z</time>
      </trkpt>
      <trkpt lat="44.33424" lon="2.58984">
        <ele>577.99</ele>
        <time>2013-01-24T08:49:06Z</time>
      </trkpt>
      <trkpt lat="44.33434" lon="2.58979">
        <ele>577.38</ele>
        <time>2013-01-24T08:49:11Z</time>
      </trkpt>
      <trkpt lat="44.33439" lon="2.58971">
        <ele>574.618</ele>
        <time>2013-01-24T08:49:15Z</time>
      </trkpt>
      <trkpt lat="44.33455" lon="2.58954">
        <ele>573.909</ele>
        <time>2013-01-24T08:49:22Z</time>
      </trkpt>
      <trkpt lat="44.3346" lon="2.58943">
        <ele>572.758</ele>
        <time>2013-01-24T08:49:26Z</time>
      </trkpt>
      <trkpt lat="44.33467" lon="2.58934">
        <ele>568.608</ele>
        <time>2013-01-24T08:49:30Z</time>
      </trkpt>
      <trkpt lat="44.33475" lon="2.58924">
        <ele>570.66</ele>
        <time>2013-01-24T08:49:34Z</time>
      </trkpt>
      <trkpt lat="44.33524" lon="2.58944">
        <ele>565.558</ele>
        <time>2013-01-24T08:49:40Z</time>
      </trkpt>
      <trkpt lat="44.33531" lon="2.58925">
        <ele>559.048</ele>
        <time>2013-01-24T08:49:46Z</time>
      </trkpt>
      <trkpt lat="44.33535" lon="2.58915">
        <ele>554.647</ele>
        <time>2013-01-24T08:49:50Z</time>
      </trkpt>
      <trkpt lat="44.3354" lon="2.58904">
        <ele>551.458</ele>
        <time>2013-01-24T08:49:55Z</time>
      </trkpt>
      <trkpt lat="44.33541" lon="2.589">
        <ele>552.599</ele>
        <time>2013-01-24T08:49:58Z</time>
      </trkpt>
      <trkpt lat="44.33494" lon="2.58846">
        <ele>553.589</ele>
        <time>2013-01-24T08:50:00Z</time>
      </trkpt>
      <trkpt lat="44.33487" lon="2.58837">
        <ele>560.701</ele>
        <time>2013-01-24T08:50:05Z</time>
      </trkpt>
      <trkpt lat="44.33479" lon="2.58837">
        <ele>573.743</ele>
        <time>2013-01-24T08:50:10Z</time>
      </trkpt>
      <trkpt lat="44.33469" lon="2.58847">
        <ele>581.615</ele>
        <time>2013-01-24T08:50:16Z</time>
      </trkpt>
      <trkpt lat="44.33461" lon="2.5885">
        <ele>584.663</ele>
        <time>2013-01-24T08:50:21Z</time>
      </trkpt>
      <trkpt lat="44.33456" lon="2.58851">
        <ele>585.663</ele>
        <time>2013-01-24T08:50:26Z</time>
      </trkpt>
      <trkpt lat="44.33452" lon="2.58855">
        <ele>586.543</ele>
        <time>2013-01-24T08:50:30Z</time>
      </trkpt>
      <trkpt lat="44.33448" lon="2.58858">
        <ele>587.512</ele>
        <time>2013-01-24T08:50:34Z</time>
      </trkpt>
      <trkpt lat="44.33443" lon="2.58854">
        <ele>587.341</ele>
        <time>2013-01-24T08:50:40Z</time>
      </trkpt>
      <trkpt lat="44.33444" lon="2.58852">
        <ele>586.54</ele>
        <time>2013-01-24T08:50:42Z</time>
      </trkpt>
      <trkpt lat="44.33446" lon="2.58846">
        <ele>583.56</ele>
        <time>2013-01-24T08:50:48Z</time>
      </trkpt>
      <trkpt lat="44.33444" lon="2.58839">
        <ele>585.452</ele>
        <time>2013-01-24T08:50:52Z</time>
      </trkpt>
      <trkpt lat="44.33438" lon="2.58837">
        <ele>588.002</ele>
        <time>2013-01-24T08:50:59Z</time>
      </trkpt>
      <trkpt lat="44.33434" lon="2.58833">
        <ele>586.63</ele>
        <time>2013-01-24T08:51:04Z</time>
      </trkpt>
      <trkpt lat="44.3343" lon="2.58829">
        <ele>587.993</ele>
        <time>2013-01-24T08:51:16Z</time>
      </trkpt>
      <trkpt lat="44.33429" lon="2.58828">
        <ele>589.419</ele>
        <time>2013-01-24T08:51:18Z</time>
      </trkpt>
      <trkpt lat="44.33408" lon="2.58769">
        <ele>588.952</ele>
        <time>2013-01-24T08:51:21Z</time>
      </trkpt>
      <trkpt lat="44.334" lon="2.58774">
        <ele>586.677</ele>
        <time>2013-01-24T08:51:26Z</time>
      </trkpt>
      <trkpt lat="44.33397" lon="2.58746">
        <ele>586.562</ele>
        <time>2013-01-24T08:51:30Z</time>
      </trkpt>
      <trkpt lat="44.33395" lon="2.58777">
        <ele>589.204</ele>
        <time>2013-01-24T08:51:35Z</time>
      </trkpt>
      <trkpt lat="44.33387" lon="2.58778">
        <ele>590.604</ele>
        <time>2013-01-24T08:51:39Z</time>
      </trkpt>
      <trkpt lat="44.33379" lon="2.58778">
        <ele>590.91</ele>
        <time>2013-01-24T08:51:43Z</time>
      </trkpt>
      <trkpt lat="44.33375" lon="2.58778">
        <ele>590.465</ele>
        <time>2013-01-24T08:51:47Z</time>
      </trkpt>
      <trkpt lat="44.33369" lon="2.58779">
        <ele>588.699</ele>
        <time>2013-01-24T08:51:51Z</time>
      </trkpt>
      <trkpt lat="44.33365" lon="2.58779">
        <ele>587.936</ele>
        <time>2013-01-24T08:51:53Z</time>
      </trkpt>
      <trkpt lat="44.33352" lon="2.58779">
        <ele>586.315</ele>
        <time>2013-01-24T08:51:57Z</time>
      </trkpt>
      <trkpt lat="44.33347" lon="2.58779">
        <ele>584.409</ele>
        <time>2013-01-24T08:52:02Z</time>
      </trkpt>
      <trkpt lat="44.33341" lon="2.58778">
        <ele>584.362</ele>
        <time>2013-01-24T08:52:06Z</time>
      </trkpt>
      <trkpt lat="44.33332" lon="2.58775">
        <ele>583.714</ele>
        <time>2013-01-24T08:52:10Z</time>
      </trkpt>
      <trkpt lat="44.33324" lon="2.58827">
        <ele>584.981</ele>
        <time>2013-01-24T08:52:14Z</time>
      </trkpt>
      <trkpt lat="44.33324" lon="2.58832">
        <ele>586.543</ele>
        <time>2013-01-24T08:52:16Z</time>
      </trkpt>
      <trkpt lat="44.33332" lon="2.58775">
        <ele>588.179</ele>
        <time>2013-01-24T08:52:18Z</time>
      </trkpt>
      <trkpt lat="44.33338" lon="2.58777">
        <ele>588.114</ele>
        <time>2013-01-24T08:52:23Z</time>
      </trkpt>
      <trkpt lat="44.33339" lon="2.58777">
        <ele>588.426</ele>
        <time>2013-01-24T08:52:24Z</time>
      </trkpt>
      <trkpt lat="44.33348" lon="2.5878">
        <ele>589.272</ele>
        <time>2013-01-24T08:52:29Z</time>
      </trkpt>
      <trkpt lat="44.33349" lon="2.5878">
        <ele>592.046</ele>
        <time>2013-01-24T08:52:33Z</time>
      </trkpt>
      <trkpt lat="44.33359" lon="2.5888">
        <ele>595.317</ele>
        <time>2013-01-24T08:52:39Z</time>
      </trkpt>
      <trkpt lat="44.33369" lon="2.58894">
        <ele>596.253</ele>
        <time>2013-01-24T08:52:45Z</time>
      </trkpt>
      <trkpt lat="44.3335" lon="2.58945">
        <ele>596.815</ele>
        <time>2013-01-24T08:52:49Z</time>
      </trkpt>
      <trkpt lat="44.33375" lon="2.58905">
        <ele>596.62</ele>
        <time>2013-01-24T08:52:50Z</time>
      </trkpt>
      <trkpt lat="44.3338" lon="2.58913">
        <ele>596.409</ele>
        <time>2013-01-24T08:52:54Z</time>
      </trkpt>
      <trkpt lat="44.3335" lon="2.58945">
        <ele>596.107</ele>
        <time>2013-01-24T08:52:57Z</time>
      </trkpt>
      <trkpt lat="44.3335" lon="2.58945">
        <ele>593.577</ele>
        <time>2013-01-24T08:53:02Z</time>
      </trkpt>
      <trkpt lat="44.3335" lon="2.58945">
        <ele>593.67</ele>
        <time>2013-01-24T08:53:09Z</time>
      </trkpt>
      <trkpt lat="44.3335" lon="2.58945">
        <ele>595.68</ele>
        <time>2013-01-24T08:53:14Z</time>
      </trkpt>
      <trkpt lat="44.33345" lon="2.58949">
        <ele>597.232</ele>
        <time>2013-01-24T08:53:17Z</time>
      </trkpt>
      <trkpt lat="44.33332" lon="2.58957">
        <ele>598.363</ele>
        <time>2013-01-24T08:53:22Z</time>
      </trkpt>
      <trkpt lat="44.33323" lon="2.58964">
        <ele>599.873</ele>
        <time>2013-01-24T08:53:28Z</time>
      </trkpt>
      <trkpt lat="44.33318" lon="2.58969">
        <ele>599.961</ele>
        <time>2013-01-24T08:53:33Z</time>
      </trkpt>
      <trkpt lat="44.33312" lon="2.58974">
        <ele>600.302</ele>
        <time>2013-01-24T08:53:38Z</time>
      </trkpt>
      <trkpt lat="44.33305" lon="2.58979">
        <ele>602.63</ele>
        <time>2013-01-24T08:53:45Z</time>
      </trkpt>
      <trkpt lat="44.33301" lon="2.58982">
        <ele>602.625</ele>
        <time>2013-01-24T08:53:49Z</time>
      </trkpt>
      <trkpt lat="44.33298" lon="2.58985">
        <ele>602.527</ele>
        <time>2013-01-24T08:53:53Z</time>
      </trkpt>
      <trkpt lat="44.33297" lon="2.58986">
        <ele>601.311</ele>
        <time>2013-01-24T08:53:55Z</time>
      </trkpt>
      <trkpt lat="44.33296" lon="2.58986">
        <ele>599.594</ele>
        <time>2013-01-24T08:53:58Z</time>
      </trkpt>
      <trkpt lat="44.33287" lon="2.58994">
        <ele>598.092</ele>
        <time>2013-01-24T08:55:29Z</time>
      </trkpt>
      <trkpt lat="44.33274" lon="2.59005">
        <ele>598.722</ele>
        <time>2013-01-24T08:55:35Z</time>
      </trkpt>
      <trkpt lat="44.33263" lon="2.59016">
        <ele>598.651</ele>
        <time>2013-01-24T08:55:40Z</time>
      </trkpt>
      <trkpt lat="44.33254" lon="2.59026">
        <ele>598.941</ele>
        <time>2013-01-24T08:55:45Z</time>
      </trkpt>
      <trkpt lat="44.33247" lon="2.59034">
        <ele>597.14</ele>
        <time>2013-01-24T08:55:49Z</time>
      </trkpt>
      <trkpt lat="44.33234" lon="2.5905">
        <ele>595.331</ele>
        <time>2013-01-24T08:55:55Z</time>
      </trkpt>
      <trkpt lat="44.33223" lon="2.59066">
        <ele>596.201</ele>
        <time>2013-01-24T08:56:00Z</time>
      </trkpt>
      <trkpt lat="44.33212" lon="2.59081">
        <ele>596.761</ele>
        <time>2013-01-24T08:56:05Z</time>
      </trkpt>
      <trkpt lat="44.33197" lon="2.59103">
        <ele>600.252</ele>
        <time>2013-01-24T08:56:11Z</time>
      </trkpt>
      <trkpt lat="44.3319" lon="2.59114">
        <ele>600.681</ele>
        <time>2013-01-24T08:56:17Z</time>
      </trkpt>
      <trkpt lat="44.33207" lon="2.59147">
        <ele>600.2</ele>
        <time>2013-01-24T08:56:21Z</time>
      </trkpt>
      <trkpt lat="44.33205" lon="2.59147">
        <ele>600.021</ele>
        <time>2013-01-24T08:56:22Z</time>
      </trkpt>
      <trkpt lat="44.3322" lon="2.5915">
        <ele>598.5</ele>
        <time>2013-01-24T08:56:27Z</time>
      </trkpt>
      <trkpt lat="44.33222" lon="2.59153">
        <ele>598.171</ele>
        <time>2013-01-24T08:56:28Z</time>
      </trkpt>
      <trkpt lat="44.33223" lon="2.59172">
        <ele>596.399</ele>
        <time>2013-01-24T08:56:32Z</time>
      </trkpt>
      <trkpt lat="44.3322" lon="2.59195">
        <ele>595.63</ele>
        <time>2013-01-24T08:56:37Z</time>
      </trkpt>
      <trkpt lat="44.33222" lon="2.59216">
        <ele>595.76</ele>
        <time>2013-01-24T08:56:41Z</time>
      </trkpt>
      <trkpt lat="44.33225" lon="2.59223">
        <ele>595.931</ele>
        <time>2013-01-24T08:56:43Z</time>
      </trkpt>
      <trkpt lat="44.3323" lon="2.5924">
        <ele>596.251</ele>
        <time>2013-01-24T08:56:48Z</time>
      </trkpt>
      <trkpt lat="44.33229" lon="2.59247">
        <ele>596.731</ele>
        <time>2013-01-24T08:56:50Z</time>
      </trkpt>
      <trkpt lat="44.33222" lon="2.5926">
        <ele>598.633</ele>
        <time>2013-01-24T08:56:55Z</time>
      </trkpt>
      <trkpt lat="44.33213" lon="2.5927">
        <ele>600.883</ele>
        <time>2013-01-24T08:57:00Z</time>
      </trkpt>
      <trkpt lat="44.33207" lon="2.59271">
        <ele>604.044</ele>
        <time>2013-01-24T08:57:05Z</time>
      </trkpt>
      <trkpt lat="44.33193" lon="2.59315">
        <ele>605.813</ele>
        <time>2013-01-24T08:57:12Z</time>
      </trkpt>
      <trkpt lat="44.33186" lon="2.59332">
        <ele>605.431</ele>
        <time>2013-01-24T08:57:17Z</time>
      </trkpt>
      <trkpt lat="44.33179" lon="2.5935">
        <ele>604.602</ele>
        <time>2013-01-24T08:57:22Z</time>
      </trkpt>
      <trkpt lat="44.33171" lon="2.59371">
        <ele>603.351</ele>
        <time>2013-01-24T08:57:27Z</time>
      </trkpt>
      <trkpt lat="44.33173" lon="2.59372">
        <ele>603.391</ele>
        <time>2013-01-24T08:57:29Z</time>
      </trkpt>
      <trkpt lat="44.33171" lon="2.59371">
        <ele>601.4</ele>
        <time>2013-01-24T08:57:33Z</time>
      </trkpt>
      <trkpt lat="44.33167" lon="2.59367">
        <ele>600.741</ele>
        <time>2013-01-24T08:57:35Z</time>
      </trkpt>
      <trkpt lat="44.33156" lon="2.59356">
        <ele>599.971</ele>
        <time>2013-01-24T08:57:40Z</time>
      </trkpt>
      <trkpt lat="44.33141" lon="2.5934">
        <ele>599.362</ele>
        <time>2013-01-24T08:57:47Z</time>
      </trkpt>
      <trkpt lat="44.33135" lon="2.59336">
        <ele>600.853</ele>
        <time>2013-01-24T08:57:51Z</time>
      </trkpt>
      <trkpt lat="44.33109" lon="2.59331">
        <ele>603.282</ele>
        <time>2013-01-24T08:57:57Z</time>
      </trkpt>
      <trkpt lat="44.33106" lon="2.59344">
        <ele>603.542</ele>
        <time>2013-01-24T08:58:02Z</time>
      </trkpt>
      <trkpt lat="44.33103" lon="2.59358">
        <ele>603.301</ele>
        <time>2013-01-24T08:58:07Z</time>
      </trkpt>
      <trkpt lat="44.33113" lon="2.59378">
        <ele>604.392</ele>
        <time>2013-01-24T08:58:11Z</time>
      </trkpt>
      <trkpt lat="44.33124" lon="2.59391">
        <ele>603.771</ele>
        <time>2013-01-24T08:58:17Z</time>
      </trkpt>
      <trkpt lat="44.33133" lon="2.59402">
        <ele>603.721</ele>
        <time>2013-01-24T08:58:22Z</time>
      </trkpt>
      <trkpt lat="44.33138" lon="2.59407">
        <ele>603.812</ele>
        <time>2013-01-24T08:58:24Z</time>
      </trkpt>
      <trkpt lat="44.33152" lon="2.59423">
        <ele>603.771</ele>
        <time>2013-01-24T08:58:31Z</time>
      </trkpt>
      <trkpt lat="44.33165" lon="2.59437">
        <ele>605.642</ele>
        <time>2013-01-24T08:58:37Z</time>
      </trkpt>
      <trkpt lat="44.33172" lon="2.59447">
        <ele>606.592</ele>
        <time>2013-01-24T08:58:41Z</time>
      </trkpt>
      <trkpt lat="44.33183" lon="2.59458">
        <ele>607.883</ele>
        <time>2013-01-24T08:58:46Z</time>
      </trkpt>
      <trkpt lat="44.33194" lon="2.59472">
        <ele>609.273</ele>
        <time>2013-01-24T08:58:51Z</time>
      </trkpt>
      <trkpt lat="44.33203" lon="2.59481">
        <ele>609.763</ele>
        <time>2013-01-24T08:58:55Z</time>
      </trkpt>
      <trkpt lat="44.33218" lon="2.59498">
        <ele>611.954</ele>
        <time>2013-01-24T08:59:02Z</time>
      </trkpt>
      <trkpt lat="44.33227" lon="2.59509">
        <ele>612.002</ele>
        <time>2013-01-24T08:59:08Z</time>
      </trkpt>
      <trkpt lat="44.33238" lon="2.59521">
        <ele>611.642</ele>
        <time>2013-01-24T08:59:14Z</time>
      </trkpt>
      <trkpt lat="44.33243" lon="2.59527">
        <ele>611.032</ele>
        <time>2013-01-24T08:59:17Z</time>
      </trkpt>
      <trkpt lat="44.33255" lon="2.59541">
        <ele>610.411</ele>
        <time>2013-01-24T08:59:23Z</time>
      </trkpt>
      <trkpt lat="44.33261" lon="2.59548">
        <ele>610.993</ele>
        <time>2013-01-24T08:59:27Z</time>
      </trkpt>
      <trkpt lat="44.33271" lon="2.59559">
        <ele>611.613</ele>
        <time>2013-01-24T08:59:32Z</time>
      </trkpt>
      <trkpt lat="44.33288" lon="2.59579">
        <ele>612.583</ele>
        <time>2013-01-24T08:59:40Z</time>
      </trkpt>
      <trkpt lat="44.33295" lon="2.59586">
        <ele>613.604</ele>
        <time>2013-01-24T08:59:43Z</time>
      </trkpt>
      <trkpt lat="44.33293" lon="2.59596">
        <ele>613.733</ele>
        <time>2013-01-24T08:59:47Z</time>
      </trkpt>
      <trkpt lat="44.33276" lon="2.59611">
        <ele>612.802</ele>
        <time>2013-01-24T08:59:54Z</time>
      </trkpt>
      <trkpt lat="44.33263" lon="2.59623">
        <ele>612.402</ele>
        <time>2013-01-24T08:59:59Z</time>
      </trkpt>
      <trkpt lat="44.33251" lon="2.59637">
        <ele>611.442</ele>
        <time>2013-01-24T09:00:05Z</time>
      </trkpt>
      <trkpt lat="44.33243" lon="2.59654">
        <ele>613.073</ele>
        <time>2013-01-24T09:00:10Z</time>
      </trkpt>
      <trkpt lat="44.33238" lon="2.59673">
        <ele>615.203</ele>
        <time>2013-01-24T09:00:15Z</time>
      </trkpt>
      <trkpt lat="44.33234" lon="2.5969">
        <ele>616.624</ele>
        <time>2013-01-24T09:00:20Z</time>
      </trkpt>
      <trkpt lat="44.3323" lon="2.59701">
        <ele>617.023</ele>
        <time>2013-01-24T09:00:24Z</time>
      </trkpt>
      <trkpt lat="44.33227" lon="2.59711">
        <ele>617.363</ele>
        <time>2013-01-24T09:00:31Z</time>
      </trkpt>
      <trkpt lat="44.33226" lon="2.59713">
        <ele>617.483</ele>
        <time>2013-01-24T09:00:33Z</time>
      </trkpt>
      <trkpt lat="44.33224" lon="2.59719">
        <ele>617.264</ele>
        <time>2013-01-24T09:00:39Z</time>
      </trkpt>
      <trkpt lat="44.33222" lon="2.59723">
        <ele>616.913</ele>
        <time>2013-01-24T09:00:45Z</time>
      </trkpt>
      <trkpt lat="44.33217" lon="2.59736">
        <ele>619.054</ele>
        <time>2013-01-24T09:00:53Z</time>
      </trkpt>
      <trkpt lat="44.33212" lon="2.59748">
        <ele>619.333</ele>
        <time>2013-01-24T09:01:00Z</time>
      </trkpt>
      <trkpt lat="44.33208" lon="2.59757">
        <ele>618.013</ele>
        <time>2013-01-24T09:01:07Z</time>
      </trkpt>
      <trkpt lat="44.33205" lon="2.59765">
        <ele>619.044</ele>
        <time>2013-01-24T09:01:12Z</time>
      </trkpt>
      <trkpt lat="44.332" lon="2.59774">
        <ele>620.494</ele>
        <time>2013-01-24T09:01:16Z</time>
      </trkpt>
      <trkpt lat="44.33191" lon="2.59786">
        <ele>622.804</ele>
        <time>2013-01-24T09:01:21Z</time>
      </trkpt>
      <trkpt lat="44.3318" lon="2.59796">
        <ele>624.735</ele>
        <time>2013-01-24T09:01:26Z</time>
      </trkpt>
      <trkpt lat="44.33171" lon="2.59804">
        <ele>625.854</ele>
        <time>2013-01-24T09:01:31Z</time>
      </trkpt>
      <trkpt lat="44.33159" lon="2.59808">
        <ele>626.024</ele>
        <time>2013-01-24T09:01:36Z</time>
      </trkpt>
      <trkpt lat="44.33152" lon="2.59808">
        <ele>626.293</ele>
        <time>2013-01-24T09:01:40Z</time>
      </trkpt>
      <trkpt lat="44.33145" lon="2.59809">
        <ele>626.803</ele>
        <time>2013-01-24T09:01:44Z</time>
      </trkpt>
      <trkpt lat="44.33128" lon="2.59817">
        <ele>627.434</ele>
        <time>2013-01-24T09:01:50Z</time>
      </trkpt>
      <trkpt lat="44.33118" lon="2.59825">
        <ele>627.244</ele>
        <time>2013-01-24T09:01:53Z</time>
      </trkpt>
      <trkpt lat="44.3314" lon="2.59881">
        <ele>625.952</ele>
        <time>2013-01-24T09:01:58Z</time>
      </trkpt>
      <trkpt lat="44.33141" lon="2.59893">
        <ele>625.071</ele>
        <time>2013-01-24T09:02:03Z</time>
      </trkpt>
      <trkpt lat="44.33102" lon="2.59843">
        <ele>623.801</ele>
        <time>2013-01-24T09:02:06Z</time>
      </trkpt>
      <trkpt lat="44.33145" lon="2.59912">
        <ele>623.011</ele>
        <time>2013-01-24T09:02:09Z</time>
      </trkpt>
      <trkpt lat="44.33143" lon="2.59922">
        <ele>622.331</ele>
        <time>2013-01-24T09:02:12Z</time>
      </trkpt>
      <trkpt lat="44.33135" lon="2.59927">
        <ele>623.404</ele>
        <time>2013-01-24T09:02:16Z</time>
      </trkpt>
      <trkpt lat="44.33129" lon="2.59925">
        <ele>624.004</ele>
        <time>2013-01-24T09:02:19Z</time>
      </trkpt>
      <trkpt lat="44.33078" lon="2.59921">
        <ele>624.483</ele>
        <time>2013-01-24T09:02:23Z</time>
      </trkpt>
      <trkpt lat="44.33077" lon="2.59936">
        <ele>624.563</ele>
        <time>2013-01-24T09:02:29Z</time>
      </trkpt>
      <trkpt lat="44.33077" lon="2.59948">
        <ele>623.723</ele>
        <time>2013-01-24T09:02:35Z</time>
      </trkpt>
      <trkpt lat="44.33076" lon="2.59964">
        <ele>623.002</ele>
        <time>2013-01-24T09:02:40Z</time>
      </trkpt>
      <trkpt lat="44.33076" lon="2.59976">
        <ele>623.282</ele>
        <time>2013-01-24T09:02:43Z</time>
      </trkpt>
      <trkpt lat="44.33166" lon="2.60035">
        <ele>622.492</ele>
        <time>2013-01-24T09:02:48Z</time>
      </trkpt>
      <trkpt lat="44.33166" lon="2.60035">
        <ele>622.372</ele>
        <time>2013-01-24T09:02:49Z</time>
      </trkpt>
      <trkpt lat="44.33166" lon="2.60035">
        <ele>621.672</ele>
        <time>2013-01-24T09:02:55Z</time>
      </trkpt>
      <trkpt lat="44.33166" lon="2.60035">
        <ele>621.643</ele>
        <time>2013-01-24T09:03:00Z</time>
      </trkpt>
      <trkpt lat="44.33166" lon="2.60036">
        <ele>623.534</ele>
        <time>2013-01-24T09:03:05Z</time>
      </trkpt>
      <trkpt lat="44.33172" lon="2.60045">
        <ele>624.224</ele>
        <time>2013-01-24T09:03:09Z</time>
      </trkpt>
      <trkpt lat="44.33174" lon="2.6005">
        <ele>623.753</ele>
        <time>2013-01-24T09:03:11Z</time>
      </trkpt>
      <trkpt lat="44.33183" lon="2.6006">
        <ele>622.703</ele>
        <time>2013-01-24T09:03:15Z</time>
      </trkpt>
      <trkpt lat="44.33185" lon="2.60062">
        <ele>622.543</ele>
        <time>2013-01-24T09:03:16Z</time>
      </trkpt>
      <trkpt lat="44.33192" lon="2.6007">
        <ele>622.203</ele>
        <time>2013-01-24T09:03:20Z</time>
      </trkpt>
      <trkpt lat="44.332" lon="2.60078">
        <ele>621.472</ele>
        <time>2013-01-24T09:03:24Z</time>
      </trkpt>
      <trkpt lat="44.33174" lon="2.60138">
        <ele>622.163</ele>
        <time>2013-01-24T09:03:30Z</time>
      </trkpt>
      <trkpt lat="44.33208" lon="2.60087">
        <ele>622.233</ele>
        <time>2013-01-24T09:03:35Z</time>
      </trkpt>
      <trkpt lat="44.33211" lon="2.60091">
        <ele>622.133</ele>
        <time>2013-01-24T09:03:38Z</time>
      </trkpt>
      <trkpt lat="44.33215" lon="2.60094">
        <ele>622.413</ele>
        <time>2013-01-24T09:03:41Z</time>
      </trkpt>
      <trkpt lat="44.33218" lon="2.60096">
        <ele>623.064</ele>
        <time>2013-01-24T09:03:44Z</time>
      </trkpt>
      <trkpt lat="44.33221" lon="2.601">
        <ele>623.294</ele>
        <time>2013-01-24T09:03:47Z</time>
      </trkpt>
      <trkpt lat="44.33228" lon="2.60106">
        <ele>624.144</ele>
        <time>2013-01-24T09:03:50Z</time>
      </trkpt>
      <trkpt lat="44.33207" lon="2.60181">
        <ele>625.934</ele>
        <time>2013-01-24T09:03:57Z</time>
      </trkpt>
      <trkpt lat="44.33233" lon="2.60109">
        <ele>626.324</ele>
        <time>2013-01-24T09:04:00Z</time>
      </trkpt>
      <trkpt lat="44.33211" lon="2.60198">
        <ele>626.023</ele>
        <time>2013-01-24T09:04:06Z</time>
      </trkpt>
      <trkpt lat="44.33213" lon="2.60203">
        <ele>626.274</ele>
        <time>2013-01-24T09:04:09Z</time>
      </trkpt>
      <trkpt lat="44.33219" lon="2.60217">
        <ele>626.604</ele>
        <time>2013-01-24T09:04:15Z</time>
      </trkpt>
      <trkpt lat="44.33227" lon="2.60231">
        <ele>626.854</ele>
        <time>2013-01-24T09:04:21Z</time>
      </trkpt>
      <trkpt lat="44.33233" lon="2.60244">
        <ele>626.353</ele>
        <time>2013-01-24T09:04:26Z</time>
      </trkpt>
      <trkpt lat="44.33238" lon="2.6026">
        <ele>626.303</ele>
        <time>2013-01-24T09:04:31Z</time>
      </trkpt>
      <trkpt lat="44.33243" lon="2.60274">
        <ele>625.582</ele>
        <time>2013-01-24T09:04:36Z</time>
      </trkpt>
      <trkpt lat="44.33244" lon="2.60276">
        <ele>625.423</ele>
        <time>2013-01-24T09:04:37Z</time>
      </trkpt>
      <trkpt lat="44.33254" lon="2.60275">
        <ele>623.562</ele>
        <time>2013-01-24T09:04:42Z</time>
      </trkpt>
      <trkpt lat="44.33258" lon="2.60274">
        <ele>622.501</ele>
        <time>2013-01-24T09:04:44Z</time>
      </trkpt>
      <trkpt lat="44.3327" lon="2.60271">
        <ele>620.542</ele>
        <time>2013-01-24T09:04:49Z</time>
      </trkpt>
      <trkpt lat="44.33279" lon="2.60265">
        <ele>618.892</ele>
        <time>2013-01-24T09:04:53Z</time>
      </trkpt>
      <trkpt lat="44.33314" lon="2.60249">
        <ele>617.631</ele>
        <time>2013-01-24T09:04:58Z</time>
      </trkpt>
      <trkpt lat="44.33319" lon="2.60268">
        <ele>617.402</ele>
        <time>2013-01-24T09:05:01Z</time>
      </trkpt>
      <trkpt lat="44.3332" lon="2.60281">
        <ele>617.503</ele>
        <time>2013-01-24T09:05:02Z</time>
      </trkpt>
      <trkpt lat="44.3332" lon="2.60287">
        <ele>617.393</ele>
        <time>2013-01-24T09:05:04Z</time>
      </trkpt>
      <trkpt lat="44.3332" lon="2.60296">
        <ele>617.313</ele>
        <time>2013-01-24T09:05:09Z</time>
      </trkpt>
      <trkpt lat="44.3332" lon="2.60295">
        <ele>615.822</ele>
        <time>2013-01-24T09:05:14Z</time>
      </trkpt>
      <trkpt lat="44.3332" lon="2.6029">
        <ele>615.413</ele>
        <time>2013-01-24T09:05:16Z</time>
      </trkpt>
      <trkpt lat="44.33318" lon="2.60265">
        <ele>614.844</ele>
        <time>2013-01-24T09:05:22Z</time>
      </trkpt>
      <trkpt lat="44.33312" lon="2.60244">
        <ele>615.564</ele>
        <time>2013-01-24T09:05:27Z</time>
      </trkpt>
      <trkpt lat="44.33304" lon="2.60226">
        <ele>616.084</ele>
        <time>2013-01-24T09:05:32Z</time>
      </trkpt>
      <trkpt lat="44.33297" lon="2.60208">
        <ele>617.495</ele>
        <time>2013-01-24T09:05:37Z</time>
      </trkpt>
      <trkpt lat="44.3329" lon="2.60189">
        <ele>617.814</ele>
        <time>2013-01-24T09:05:42Z</time>
      </trkpt>
      <trkpt lat="44.33284" lon="2.60171">
        <ele>617.443</ele>
        <time>2013-01-24T09:05:47Z</time>
      </trkpt>
      <trkpt lat="44.33277" lon="2.60152">
        <ele>616.723</ele>
        <time>2013-01-24T09:05:52Z</time>
      </trkpt>
      <trkpt lat="44.33271" lon="2.60144">
        <ele>616.094</ele>
        <time>2013-01-24T09:05:57Z</time>
      </trkpt>
      <trkpt lat="44.33258" lon="2.6013">
        <ele>616.053</ele>
        <time>2013-01-24T09:06:02Z</time>
      </trkpt>
      <trkpt lat="44.33246" lon="2.60117">
        <ele>615.583</ele>
        <time>2013-01-24T09:06:07Z</time>
      </trkpt>
      <trkpt lat="44.33234" lon="2.60109">
        <ele>615.493</ele>
        <time>2013-01-24T09:06:12Z</time>
      </trkpt>
      <trkpt lat="44.33222" lon="2.60101">
        <ele>615.843</ele>
        <time>2013-01-24T09:06:16Z</time>
      </trkpt>
      <trkpt lat="44.33208" lon="2.60087">
        <ele>616.164</ele>
        <time>2013-01-24T09:06:21Z</time>
      </trkpt>
      <trkpt lat="44.33196" lon="2.60073">
        <ele>615.813</ele>
        <time>2013-01-24T09:06:26Z</time>
      </trkpt>
      <trkpt lat="44.33182" lon="2.60058">
        <ele>615.814</ele>
        <time>2013-01-24T09:06:32Z</time>
      </trkpt>
      <trkpt lat="44.33173" lon="2.60047">
        <ele>613.922</ele>
        <time>2013-01-24T09:06:37Z</time>
      </trkpt>
      <trkpt lat="44.33201" lon="2.6001">
        <ele>611.181</ele>
        <time>2013-01-24T09:06:42Z</time>
      </trkpt>
      <trkpt lat="44.33208" lon="2.60004">
        <ele>609.651</ele>
        <time>2013-01-24T09:06:45Z</time>
      </trkpt>
      <trkpt lat="44.3322" lon="2.59987">
        <ele>606.751</ele>
        <time>2013-01-24T09:06:50Z</time>
      </trkpt>
      <trkpt lat="44.33225" lon="2.59979">
        <ele>606.251</ele>
        <time>2013-01-24T09:06:52Z</time>
      </trkpt>
      <trkpt lat="44.33235" lon="2.59966">
        <ele>604.371</ele>
        <time>2013-01-24T09:06:56Z</time>
      </trkpt>
      <trkpt lat="44.3325" lon="2.59947">
        <ele>603.081</ele>
        <time>2013-01-24T09:07:02Z</time>
      </trkpt>
      <trkpt lat="44.33269" lon="2.59926">
        <ele>603.403</ele>
        <time>2013-01-24T09:07:09Z</time>
      </trkpt>
      <trkpt lat="44.3328" lon="2.59913">
        <ele>603.262</ele>
        <time>2013-01-24T09:07:13Z</time>
      </trkpt>
      <trkpt lat="44.33294" lon="2.59903">
        <ele>603.312</ele>
        <time>2013-01-24T09:07:18Z</time>
      </trkpt>
      <trkpt lat="44.33302" lon="2.59901">
        <ele>602.332</ele>
        <time>2013-01-24T09:07:21Z</time>
      </trkpt>
      <trkpt lat="44.33313" lon="2.59913">
        <ele>601.022</ele>
        <time>2013-01-24T09:07:25Z</time>
      </trkpt>
      <trkpt lat="44.33314" lon="2.59916">
        <ele>600.631</ele>
        <time>2013-01-24T09:07:26Z</time>
      </trkpt>
      <trkpt lat="44.33326" lon="2.59932">
        <ele>600.022</ele>
        <time>2013-01-24T09:07:32Z</time>
      </trkpt>
      <trkpt lat="44.33335" lon="2.59931">
        <ele>600.232</ele>
        <time>2013-01-24T09:07:36Z</time>
      </trkpt>
      <trkpt lat="44.33345" lon="2.59919">
        <ele>597.38</ele>
        <time>2013-01-24T09:07:41Z</time>
      </trkpt>
      <trkpt lat="44.33357" lon="2.59903">
        <ele>594.05</ele>
        <time>2013-01-24T09:07:47Z</time>
      </trkpt>
      <trkpt lat="44.33361" lon="2.59888">
        <ele>591.23</ele>
        <time>2013-01-24T09:07:51Z</time>
      </trkpt>
      <trkpt lat="44.33362" lon="2.59885">
        <ele>590.61</ele>
        <time>2013-01-24T09:07:52Z</time>
      </trkpt>
      <trkpt lat="44.33372" lon="2.5986">
        <ele>587.55</ele>
        <time>2013-01-24T09:07:59Z</time>
      </trkpt>
      <trkpt lat="44.33378" lon="2.59842">
        <ele>588.872</ele>
        <time>2013-01-24T09:08:03Z</time>
      </trkpt>
      <trkpt lat="44.33386" lon="2.59823">
        <ele>590.493</ele>
        <time>2013-01-24T09:08:08Z</time>
      </trkpt>
      <trkpt lat="44.33397" lon="2.59804">
        <ele>590.892</ele>
        <time>2013-01-24T09:08:14Z</time>
      </trkpt>
      <trkpt lat="44.33402" lon="2.5979">
        <ele>590.792</ele>
        <time>2013-01-24T09:08:19Z</time>
      </trkpt>
      <trkpt lat="44.33399" lon="2.5977">
        <ele>589.201</ele>
        <time>2013-01-24T09:08:24Z</time>
      </trkpt>
      <trkpt lat="44.33396" lon="2.59765">
        <ele>588.862</ele>
        <time>2013-01-24T09:08:26Z</time>
      </trkpt>
      <trkpt lat="44.33398" lon="2.59753">
        <ele>587.591</ele>
        <time>2013-01-24T09:08:30Z</time>
      </trkpt>
      <trkpt lat="44.33401" lon="2.59738">
        <ele>585.331</ele>
        <time>2013-01-24T09:08:35Z</time>
      </trkpt>
      <trkpt lat="44.33402" lon="2.59733">
        <ele>584.291</ele>
        <time>2013-01-24T09:08:37Z</time>
      </trkpt>
      <trkpt lat="44.334" lon="2.59717">
        <ele>585.092</ele>
        <time>2013-01-24T09:08:43Z</time>
      </trkpt>
      <trkpt lat="44.334" lon="2.59715">
        <ele>585.173</ele>
        <time>2013-01-24T09:08:44Z</time>
      </trkpt>
      <trkpt lat="44.33361" lon="2.59668">
        <ele>585.612</ele>
        <time>2013-01-24T09:08:49Z</time>
      </trkpt>
      <trkpt lat="44.33385" lon="2.59657">
        <ele>583.321</ele>
        <time>2013-01-24T09:08:53Z</time>
      </trkpt>
      <trkpt lat="44.33387" lon="2.59654">
        <ele>585.263</ele>
        <time>2013-01-24T09:09:01Z</time>
      </trkpt>
      <trkpt lat="44.33392" lon="2.59646">
        <ele>587.052</ele>
        <time>2013-01-24T09:09:08Z</time>
      </trkpt>
      <trkpt lat="44.33398" lon="2.59637">
        <ele>585.431</ele>
        <time>2013-01-24T09:09:15Z</time>
      </trkpt>
      <trkpt lat="44.33405" lon="2.59628">
        <ele>581.62</ele>
        <time>2013-01-24T09:09:22Z</time>
      </trkpt>
      <trkpt lat="44.33405" lon="2.59626">
        <ele>581.73</ele>
        <time>2013-01-24T09:09:23Z</time>
      </trkpt>
      <trkpt lat="44.33406" lon="2.59625">
        <ele>582.962</ele>
        <time>2013-01-24T09:09:29Z</time>
      </trkpt>
      <trkpt lat="44.33409" lon="2.59616">
        <ele>584.683</ele>
        <time>2013-01-24T09:09:35Z</time>
      </trkpt>
      <trkpt lat="44.33412" lon="2.59606">
        <ele>584.972</ele>
        <time>2013-01-24T09:09:42Z</time>
      </trkpt>
      <trkpt lat="44.33413" lon="2.59605">
        <ele>584.732</ele>
        <time>2013-01-24T09:09:45Z</time>
      </trkpt>
      <trkpt lat="44.33412" lon="2.596">
        <ele>584.932</ele>
        <time>2013-01-24T09:09:47Z</time>
      </trkpt>
      <trkpt lat="44.33411" lon="2.59589">
        <ele>586.273</ele>
        <time>2013-01-24T09:09:53Z</time>
      </trkpt>
      <trkpt lat="44.33409" lon="2.59579">
        <ele>586.673</ele>
        <time>2013-01-24T09:09:58Z</time>
      </trkpt>
      <trkpt lat="44.33407" lon="2.59574">
        <ele>586.522</ele>
        <time>2013-01-24T09:10:00Z</time>
      </trkpt>
      <trkpt lat="44.33403" lon="2.5956">
        <ele>586.632</ele>
        <time>2013-01-24T09:10:06Z</time>
      </trkpt>
      <trkpt lat="44.33398" lon="2.59545">
        <ele>592.703</ele>
        <time>2013-01-24T09:10:10Z</time>
      </trkpt>
      <trkpt lat="44.33393" lon="2.59534">
        <ele>588.191</ele>
        <time>2013-01-24T09:10:15Z</time>
      </trkpt>
      <trkpt lat="44.33388" lon="2.59526">
        <ele>588.461</ele>
        <time>2013-01-24T09:10:19Z</time>
      </trkpt>
      <trkpt lat="44.33381" lon="2.59517">
        <ele>585.371</ele>
        <time>2013-01-24T09:10:23Z</time>
      </trkpt>
      <trkpt lat="44.3338" lon="2.59494">
        <ele>581.419</ele>
        <time>2013-01-24T09:10:28Z</time>
      </trkpt>
      <trkpt lat="44.3338" lon="2.59493">
        <ele>580.539</ele>
        <time>2013-01-24T09:10:29Z</time>
      </trkpt>
      <trkpt lat="44.3338" lon="2.59479">
        <ele>574.697</ele>
        <time>2013-01-24T09:10:34Z</time>
      </trkpt>
      <trkpt lat="44.3338" lon="2.59479">
        <ele>572.219</ele>
        <time>2013-01-24T09:10:36Z</time>
      </trkpt>
      <trkpt lat="44.33377" lon="2.59456">
        <ele>567.619</ele>
        <time>2013-01-24T09:10:43Z</time>
      </trkpt>
      <trkpt lat="44.33374" lon="2.59446">
        <ele>569.059</ele>
        <time>2013-01-24T09:10:47Z</time>
      </trkpt>
      <trkpt lat="44.33373" lon="2.59443">
        <ele>569.26</ele>
        <time>2013-01-24T09:10:48Z</time>
      </trkpt>
      <trkpt lat="44.3337" lon="2.59431">
        <ele>568.491</ele>
        <time>2013-01-24T09:10:53Z</time>
      </trkpt>
      <trkpt lat="44.33369" lon="2.59428">
        <ele>567.77</ele>
        <time>2013-01-24T09:10:54Z</time>
      </trkpt>
      <trkpt lat="44.33365" lon="2.59418">
        <ele>566.241</ele>
        <time>2013-01-24T09:10:59Z</time>
      </trkpt>
      <trkpt lat="44.33361" lon="2.59413">
        <ele>571.323</ele>
        <time>2013-01-24T09:11:03Z</time>
      </trkpt>
      <trkpt lat="44.3336" lon="2.59412">
        <ele>571.411</ele>
        <time>2013-01-24T09:11:05Z</time>
      </trkpt>
      <trkpt lat="44.3337" lon="2.59375">
        <ele>577.262</ele>
        <time>2013-01-24T09:11:09Z</time>
      </trkpt>
      <trkpt lat="44.3336" lon="2.59412">
        <ele>575.52</ele>
        <time>2013-01-24T09:11:14Z</time>
      </trkpt>
      <trkpt lat="44.33387" lon="2.59356">
        <ele>572.35</ele>
        <time>2013-01-24T09:11:18Z</time>
      </trkpt>
      <trkpt lat="44.33394" lon="2.59353">
        <ele>572.2</ele>
        <time>2013-01-24T09:11:22Z</time>
      </trkpt>
      <trkpt lat="44.33361" lon="2.59413">
        <ele>571.89</ele>
        <time>2013-01-24T09:11:26Z</time>
      </trkpt>
      <trkpt lat="44.33361" lon="2.59413">
        <ele>571.61</ele>
        <time>2013-01-24T09:11:27Z</time>
      </trkpt>
      <trkpt lat="44.33367" lon="2.59422">
        <ele>571.691</ele>
        <time>2013-01-24T09:11:32Z</time>
      </trkpt>
      <trkpt lat="44.33368" lon="2.59423">
        <ele>573.553</ele>
        <time>2013-01-24T09:11:37Z</time>
      </trkpt>
      <trkpt lat="44.3337" lon="2.59433">
        <ele>576.163</ele>
        <time>2013-01-24T09:11:42Z</time>
      </trkpt>
      <trkpt lat="44.33374" lon="2.59444">
        <ele>579.864</ele>
        <time>2013-01-24T09:11:47Z</time>
      </trkpt>
      <trkpt lat="44.33374" lon="2.59447">
        <ele>580.965</ele>
        <time>2013-01-24T09:11:48Z</time>
      </trkpt>
      <trkpt lat="44.33376" lon="2.59453">
        <ele>581.713</ele>
        <time>2013-01-24T09:11:53Z</time>
      </trkpt>
      <trkpt lat="44.33378" lon="2.59462">
        <ele>583.484</ele>
        <time>2013-01-24T09:11:57Z</time>
      </trkpt>
      <trkpt lat="44.3338" lon="2.59478">
        <ele>585.744</ele>
        <time>2013-01-24T09:12:03Z</time>
      </trkpt>
      <trkpt lat="44.3338" lon="2.59489">
        <ele>586.625</ele>
        <time>2013-01-24T09:12:09Z</time>
      </trkpt>
      <trkpt lat="44.3338" lon="2.59506">
        <ele>591.044</ele>
        <time>2013-01-24T09:12:16Z</time>
      </trkpt>
      <trkpt lat="44.3338" lon="2.59516">
        <ele>590.834</ele>
        <time>2013-01-24T09:12:21Z</time>
      </trkpt>
      <trkpt lat="44.3338" lon="2.59516">
        <ele>591.174</ele>
        <time>2013-01-24T09:12:26Z</time>
      </trkpt>
      <trkpt lat="44.33404" lon="2.59562">
        <ele>588.992</ele>
        <time>2013-01-24T09:12:32Z</time>
      </trkpt>
      <trkpt lat="44.33408" lon="2.59578">
        <ele>588.412</ele>
        <time>2013-01-24T09:12:38Z</time>
      </trkpt>
      <trkpt lat="44.33411" lon="2.59586">
        <ele>585.452</ele>
        <time>2013-01-24T09:12:43Z</time>
      </trkpt>
      <trkpt lat="44.33412" lon="2.59604">
        <ele>584.452</ele>
        <time>2013-01-24T09:12:49Z</time>
      </trkpt>
      <trkpt lat="44.33413" lon="2.59606">
        <ele>584.522</ele>
        <time>2013-01-24T09:12:50Z</time>
      </trkpt>
      <trkpt lat="44.3341" lon="2.59613">
        <ele>585.124</ele>
        <time>2013-01-24T09:12:56Z</time>
      </trkpt>
      <trkpt lat="44.33407" lon="2.59623">
        <ele>585.795</ele>
        <time>2013-01-24T09:13:01Z</time>
      </trkpt>
      <trkpt lat="44.33405" lon="2.59627">
        <ele>586.303</ele>
        <time>2013-01-24T09:13:05Z</time>
      </trkpt>
      <trkpt lat="44.33403" lon="2.59631">
        <ele>589.374</ele>
        <time>2013-01-24T09:13:08Z</time>
      </trkpt>
      <trkpt lat="44.33398" lon="2.59637">
        <ele>593.195</ele>
        <time>2013-01-24T09:13:14Z</time>
      </trkpt>
      <trkpt lat="44.33398" lon="2.59638">
        <ele>594.105</ele>
        <time>2013-01-24T09:13:15Z</time>
      </trkpt>
      <trkpt lat="44.33392" lon="2.59646">
        <ele>595.604</ele>
        <time>2013-01-24T09:13:21Z</time>
      </trkpt>
      <trkpt lat="44.33391" lon="2.59647">
        <ele>595.884</ele>
        <time>2013-01-24T09:13:22Z</time>
      </trkpt>
      <trkpt lat="44.33426" lon="2.59686">
        <ele>594.502</ele>
        <time>2013-01-24T09:13:28Z</time>
      </trkpt>
      <trkpt lat="44.33386" lon="2.59656">
        <ele>593.493</ele>
        <time>2013-01-24T09:13:33Z</time>
      </trkpt>
      <trkpt lat="44.33385" lon="2.59657">
        <ele>593.603</ele>
        <time>2013-01-24T09:13:34Z</time>
      </trkpt>
      <trkpt lat="44.33385" lon="2.59657">
        <ele>594.473</ele>
        <time>2013-01-24T09:13:40Z</time>
      </trkpt>
      <trkpt lat="44.33413" lon="2.59729">
        <ele>595.133</ele>
        <time>2013-01-24T09:13:44Z</time>
      </trkpt>
      <trkpt lat="44.33415" lon="2.59733">
        <ele>593.201</ele>
        <time>2013-01-24T09:13:47Z</time>
      </trkpt>
      <trkpt lat="44.33419" lon="2.59736">
        <ele>591.551</ele>
        <time>2013-01-24T09:13:50Z</time>
      </trkpt>
      <trkpt lat="44.33423" lon="2.59741">
        <ele>589.261</ele>
        <time>2013-01-24T09:13:54Z</time>
      </trkpt>
      <trkpt lat="44.33425" lon="2.59744">
        <ele>587.731</ele>
        <time>2013-01-24T09:13:56Z</time>
      </trkpt>
      <trkpt lat="44.33428" lon="2.59743">
        <ele>587.942</ele>
        <time>2013-01-24T09:13:59Z</time>
      </trkpt>
      <trkpt lat="44.33434" lon="2.59735">
        <ele>585.041</ele>
        <time>2013-01-24T09:14:04Z</time>
      </trkpt>
      <trkpt lat="44.33442" lon="2.59727">
        <ele>580.739</ele>
        <time>2013-01-24T09:14:08Z</time>
      </trkpt>
      <trkpt lat="44.33452" lon="2.59724">
        <ele>577.159</ele>
        <time>2013-01-24T09:14:12Z</time>
      </trkpt>
      <trkpt lat="44.33461" lon="2.59718">
        <ele>573.198</ele>
        <time>2013-01-24T09:14:16Z</time>
      </trkpt>
      <trkpt lat="44.33469" lon="2.59712">
        <ele>569.929</ele>
        <time>2013-01-24T09:14:20Z</time>
      </trkpt>
      <trkpt lat="44.3347" lon="2.59711">
        <ele>570.249</ele>
        <time>2013-01-24T09:14:21Z</time>
      </trkpt>
      <trkpt lat="44.33466" lon="2.59702">
        <ele>569.45</ele>
        <time>2013-01-24T09:14:26Z</time>
      </trkpt>
      <trkpt lat="44.33468" lon="2.5969">
        <ele>566.019</ele>
        <time>2013-01-24T09:14:30Z</time>
      </trkpt>
      <trkpt lat="44.33473" lon="2.59686">
        <ele>563.93</ele>
        <time>2013-01-24T09:14:33Z</time>
      </trkpt>
      <trkpt lat="44.33481" lon="2.59677">
        <ele>558.509</ele>
        <time>2013-01-24T09:14:38Z</time>
      </trkpt>
      <trkpt lat="44.33536" lon="2.59643">
        <ele>550.878</ele>
        <time>2013-01-24T09:14:46Z</time>
      </trkpt>
      <trkpt lat="44.33534" lon="2.59631">
        <ele>549.88</ele>
        <time>2013-01-24T09:14:52Z</time>
      </trkpt>
      <trkpt lat="44.33534" lon="2.59631">
        <ele>549.596</ele>
        <time>2013-01-24T09:14:54Z</time>
      </trkpt>
      <trkpt lat="44.33534" lon="2.59631">
        <ele>572.913</ele>
        <time>2013-01-24T09:15:38Z</time>
      </trkpt>
      <trkpt lat="44.33533" lon="2.59625">
        <ele>572.738</ele>
        <time>2013-01-24T09:15:42Z</time>
      </trkpt>
      <trkpt lat="44.33532" lon="2.59605">
        <ele>573.849</ele>
        <time>2013-01-24T09:16:46Z</time>
      </trkpt>
      <trkpt lat="44.33532" lon="2.5959">
        <ele>565.929</ele>
        <time>2013-01-24T09:16:53Z</time>
      </trkpt>
      <trkpt lat="44.33474" lon="2.59586">
        <ele>563.669</ele>
        <time>2013-01-24T09:16:56Z</time>
      </trkpt>
      <trkpt lat="44.33473" lon="2.59576">
        <ele>560.879</ele>
        <time>2013-01-24T09:17:00Z</time>
      </trkpt>
      <trkpt lat="44.3347" lon="2.59567">
        <ele>558.59</ele>
        <time>2013-01-24T09:17:04Z</time>
      </trkpt>
      <trkpt lat="44.33463" lon="2.59553">
        <ele>558.739</ele>
        <time>2013-01-24T09:17:09Z</time>
      </trkpt>
      <trkpt lat="44.33452" lon="2.59534">
        <ele>560.982</ele>
        <time>2013-01-24T09:17:15Z</time>
      </trkpt>
      <trkpt lat="44.33447" lon="2.59524">
        <ele>561.412</ele>
        <time>2013-01-24T09:17:18Z</time>
      </trkpt>
      <trkpt lat="44.334" lon="2.5955">
        <ele>560.801</ele>
        <time>2013-01-24T09:17:20Z</time>
      </trkpt>
      <trkpt lat="44.33398" lon="2.59545">
        <ele>558.921</ele>
        <time>2013-01-24T09:17:24Z</time>
      </trkpt>
      <trkpt lat="44.33443" lon="2.59479">
        <ele>556.15</ele>
        <time>2013-01-24T09:17:29Z</time>
      </trkpt>
      <trkpt lat="44.33486" lon="2.59443">
        <ele>555.991</ele>
        <time>2013-01-24T09:17:33Z</time>
      </trkpt>
      <trkpt lat="44.33481" lon="2.59422">
        <ele>557.031</ele>
        <time>2013-01-24T09:17:38Z</time>
      </trkpt>
      <trkpt lat="44.33479" lon="2.59417">
        <ele>559.002</ele>
        <time>2013-01-24T09:17:41Z</time>
      </trkpt>
      <trkpt lat="44.33479" lon="2.59398">
        <ele>558.951</ele>
        <time>2013-01-24T09:17:48Z</time>
      </trkpt>
      <trkpt lat="44.33479" lon="2.59398">
        <ele>558.33</ele>
        <time>2013-01-24T09:17:51Z</time>
      </trkpt>
      <trkpt lat="44.33481" lon="2.59389">
        <ele>555.35</ele>
        <time>2013-01-24T09:17:56Z</time>
      </trkpt>
      <trkpt lat="44.33484" lon="2.59379">
        <ele>552.159</ele>
        <time>2013-01-24T09:18:00Z</time>
      </trkpt>
      <trkpt lat="44.33425" lon="2.59341">
        <ele>547.398</ele>
        <time>2013-01-24T09:18:05Z</time>
      </trkpt>
      <trkpt lat="44.33425" lon="2.59333">
        <ele>546.597</ele>
        <time>2013-01-24T09:18:07Z</time>
      </trkpt>
      <trkpt lat="44.33427" lon="2.59303">
        <ele>545.428</ele>
        <time>2013-01-24T09:18:13Z</time>
      </trkpt>
      <trkpt lat="44.33482" lon="2.59269">
        <ele>543.95</ele>
        <time>2013-01-24T09:18:18Z</time>
      </trkpt>
      <trkpt lat="44.33481" lon="2.59266">
        <ele>543.589</ele>
        <time>2013-01-24T09:18:19Z</time>
      </trkpt>
      <trkpt lat="44.33478" lon="2.5925">
        <ele>543.13</ele>
        <time>2013-01-24T09:18:24Z</time>
      </trkpt>
      <trkpt lat="44.33476" lon="2.5924">
        <ele>540.878</ele>
        <time>2013-01-24T09:18:28Z</time>
      </trkpt>
      <trkpt lat="44.33475" lon="2.59228">
        <ele>537.507</ele>
        <time>2013-01-24T09:18:33Z</time>
      </trkpt>
      <trkpt lat="44.33473" lon="2.59216">
        <ele>537.508</ele>
        <time>2013-01-24T09:18:37Z</time>
      </trkpt>
      <trkpt lat="44.33471" lon="2.59196">
        <ele>534.757</ele>
        <time>2013-01-24T09:18:42Z</time>
      </trkpt>
      <trkpt lat="44.33471" lon="2.59182">
        <ele>534.399</ele>
        <time>2013-01-24T09:18:46Z</time>
      </trkpt>
      <trkpt lat="44.33471" lon="2.5916">
        <ele>535.189</ele>
        <time>2013-01-24T09:18:53Z</time>
      </trkpt>
      <trkpt lat="44.33471" lon="2.59142">
        <ele>534.289</ele>
        <time>2013-01-24T09:18:58Z</time>
      </trkpt>
      <trkpt lat="44.33472" lon="2.59129">
        <ele>534.678</ele>
        <time>2013-01-24T09:19:02Z</time>
      </trkpt>
      <trkpt lat="44.33473" lon="2.59114">
        <ele>533.499</ele>
        <time>2013-01-24T09:19:07Z</time>
      </trkpt>
      <trkpt lat="44.33475" lon="2.59097">
        <ele>533.869</ele>
        <time>2013-01-24T09:19:11Z</time>
      </trkpt>
      <trkpt lat="44.33476" lon="2.59079">
        <ele>532.3</ele>
        <time>2013-01-24T09:19:15Z</time>
      </trkpt>
      <trkpt lat="44.33477" lon="2.59068">
        <ele>533.849</ele>
        <time>2013-01-24T09:19:19Z</time>
      </trkpt>
      <trkpt lat="44.33479" lon="2.5905">
        <ele>532.029</ele>
        <time>2013-01-24T09:19:25Z</time>
      </trkpt>
      <trkpt lat="44.3348" lon="2.59044">
        <ele>534.69</ele>
        <time>2013-01-24T09:19:30Z</time>
      </trkpt>
      <trkpt lat="44.3348" lon="2.59044">
        <ele>534.409</ele>
        <time>2013-01-24T09:19:31Z</time>
      </trkpt>
      <trkpt lat="44.33431" lon="2.59005">
        <ele>549.183</ele>
        <time>2013-01-24T09:19:40Z</time>
      </trkpt>
      <trkpt lat="44.3343" lon="2.59">
        <ele>554.054</ele>
        <time>2013-01-24T09:19:46Z</time>
      </trkpt>
      <trkpt lat="44.3343" lon="2.58999">
        <ele>555.334</ele>
        <time>2013-01-24T09:19:47Z</time>
      </trkpt>
      <trkpt lat="44.33434" lon="2.58988">
        <ele>559.262</ele>
        <time>2013-01-24T09:19:57Z</time>
      </trkpt>
      <trkpt lat="44.33435" lon="2.58983">
        <ele>561.563</ele>
        <time>2013-01-24T09:20:02Z</time>
      </trkpt>
      <trkpt lat="44.33491" lon="2.59016">
        <ele>562.122</ele>
        <time>2013-01-24T09:20:08Z</time>
      </trkpt>
      <trkpt lat="44.33431" lon="2.58961">
        <ele>565.092</ele>
        <time>2013-01-24T09:20:27Z</time>
      </trkpt>
      <trkpt lat="44.33439" lon="2.58957">
        <ele>566.741</ele>
        <time>2013-01-24T09:20:33Z</time>
      </trkpt>
      <trkpt lat="44.33441" lon="2.58956">
        <ele>566.471</ele>
        <time>2013-01-24T09:20:34Z</time>
      </trkpt>
      <trkpt lat="44.33452" lon="2.58947">
        <ele>563.41</ele>
        <time>2013-01-24T09:20:39Z</time>
      </trkpt>
      <trkpt lat="44.33456" lon="2.58943">
        <ele>561.679</ele>
        <time>2013-01-24T09:20:41Z</time>
      </trkpt>
      <trkpt lat="44.33467" lon="2.58926">
        <ele>558.009</ele>
        <time>2013-01-24T09:20:48Z</time>
      </trkpt>
      <trkpt lat="44.33472" lon="2.58916">
        <ele>555.148</ele>
        <time>2013-01-24T09:20:52Z</time>
      </trkpt>
      <trkpt lat="44.33478" lon="2.58898">
        <ele>551.368</ele>
        <time>2013-01-24T09:20:59Z</time>
      </trkpt>
      <trkpt lat="44.3348" lon="2.58894">
        <ele>550.996</ele>
        <time>2013-01-24T09:21:01Z</time>
      </trkpt>
      <trkpt lat="44.33485" lon="2.5888">
        <ele>548.838</ele>
        <time>2013-01-24T09:21:07Z</time>
      </trkpt>
      <trkpt lat="44.33488" lon="2.58869">
        <ele>547.898</ele>
        <time>2013-01-24T09:21:12Z</time>
      </trkpt>
      <trkpt lat="44.33491" lon="2.58851">
        <ele>546.008</ele>
        <time>2013-01-24T09:21:18Z</time>
      </trkpt>
      <trkpt lat="44.33491" lon="2.58845">
        <ele>546.499</ele>
        <time>2013-01-24T09:21:20Z</time>
      </trkpt>
      <trkpt lat="44.3349" lon="2.58838">
        <ele>546.068</ele>
        <time>2013-01-24T09:21:22Z</time>
      </trkpt>
      <trkpt lat="44.33514" lon="2.58776">
        <ele>553.942</ele>
        <time>2013-01-24T09:21:28Z</time>
      </trkpt>
      <trkpt lat="44.33514" lon="2.58776">
        <ele>556.032</ele>
        <time>2013-01-24T09:21:29Z</time>
      </trkpt>
      <trkpt lat="44.33472" lon="2.58835">
        <ele>569.404</ele>
        <time>2013-01-24T09:21:35Z</time>
      </trkpt>
      <trkpt lat="44.33464" lon="2.58844">
        <ele>576.174</ele>
        <time>2013-01-24T09:21:42Z</time>
      </trkpt>
      <trkpt lat="44.33454" lon="2.58852">
        <ele>583.655</ele>
        <time>2013-01-24T09:21:49Z</time>
      </trkpt>
      <trkpt lat="44.33452" lon="2.58854">
        <ele>585.454</ele>
        <time>2013-01-24T09:21:51Z</time>
      </trkpt>
      <trkpt lat="44.33445" lon="2.5886">
        <ele>589.295</ele>
        <time>2013-01-24T09:21:55Z</time>
      </trkpt>
      <trkpt lat="44.3344" lon="2.58852">
        <ele>586.193</ele>
        <time>2013-01-24T09:21:59Z</time>
      </trkpt>
      <trkpt lat="44.33442" lon="2.58846">
        <ele>585.022</ele>
        <time>2013-01-24T09:22:02Z</time>
      </trkpt>
      <trkpt lat="44.33444" lon="2.5884">
        <ele>582.081</ele>
        <time>2013-01-24T09:22:05Z</time>
      </trkpt>
      <trkpt lat="44.33436" lon="2.58835">
        <ele>584.182</ele>
        <time>2013-01-24T09:22:10Z</time>
      </trkpt>
      <trkpt lat="44.33432" lon="2.58833">
        <ele>585.022</ele>
        <time>2013-01-24T09:22:13Z</time>
      </trkpt>
      <trkpt lat="44.33427" lon="2.58826">
        <ele>586.332</ele>
        <time>2013-01-24T09:22:17Z</time>
      </trkpt>
      <trkpt lat="44.33401" lon="2.58774">
        <ele>587.772</ele>
        <time>2013-01-24T09:22:23Z</time>
      </trkpt>
      <trkpt lat="44.33395" lon="2.58777">
        <ele>588.302</ele>
        <time>2013-01-24T09:22:28Z</time>
      </trkpt>
      <trkpt lat="44.33394" lon="2.58777">
        <ele>591.883</ele>
        <time>2013-01-24T09:22:34Z</time>
      </trkpt>
      <trkpt lat="44.33388" lon="2.58778">
        <ele>594.803</ele>
        <time>2013-01-24T09:22:40Z</time>
      </trkpt>
      <trkpt lat="44.33387" lon="2.58778">
        <ele>594.853</ele>
        <time>2013-01-24T09:22:41Z</time>
      </trkpt>
      <trkpt lat="44.33382" lon="2.58778">
        <ele>595.973</ele>
        <time>2013-01-24T09:22:46Z</time>
      </trkpt>
      <trkpt lat="44.33379" lon="2.5884">
        <ele>592.4</ele>
        <time>2013-01-24T09:22:50Z</time>
      </trkpt>
      <trkpt lat="44.33373" lon="2.58827">
        <ele>588.209</ele>
        <time>2013-01-24T09:22:56Z</time>
      </trkpt>
      <trkpt lat="44.33363" lon="2.58779">
        <ele>587.889</ele>
        <time>2013-01-24T09:23:01Z</time>
      </trkpt>
      <trkpt lat="44.33353" lon="2.58779">
        <ele>586.351</ele>
        <time>2013-01-24T09:23:06Z</time>
      </trkpt>
      <trkpt lat="44.33352" lon="2.58779">
        <ele>586.491</ele>
        <time>2013-01-24T09:23:07Z</time>
      </trkpt>
      <trkpt lat="44.33348" lon="2.5878">
        <ele>585.581</ele>
        <time>2013-01-24T09:23:09Z</time>
      </trkpt>
      <trkpt lat="44.33343" lon="2.58778">
        <ele>581.428</ele>
        <time>2013-01-24T09:23:16Z</time>
      </trkpt>
      <trkpt lat="44.33336" lon="2.58776">
        <ele>577.808</ele>
        <time>2013-01-24T09:23:20Z</time>
      </trkpt>
      <trkpt lat="44.33324" lon="2.5883">
        <ele>580.589</ele>
        <time>2013-01-24T09:23:24Z</time>
      </trkpt>
      <trkpt lat="44.33332" lon="2.58775">
        <ele>584.482</ele>
        <time>2013-01-24T09:23:31Z</time>
      </trkpt>
      <trkpt lat="44.33338" lon="2.58777">
        <ele>586.422</ele>
        <time>2013-01-24T09:23:36Z</time>
      </trkpt>
      <trkpt lat="44.33339" lon="2.58777">
        <ele>586.832</ele>
        <time>2013-01-24T09:23:37Z</time>
      </trkpt>
      <trkpt lat="44.33344" lon="2.58778">
        <ele>589.543</ele>
        <time>2013-01-24T09:23:42Z</time>
      </trkpt>
      <trkpt lat="44.33344" lon="2.58868">
        <ele>590.902</ele>
        <time>2013-01-24T09:23:49Z</time>
      </trkpt>
      <trkpt lat="44.3335" lon="2.58879">
        <ele>592.472</ele>
        <time>2013-01-24T09:23:55Z</time>
      </trkpt>
      <trkpt lat="44.33356" lon="2.58889">
        <ele>592.881</ele>
        <time>2013-01-24T09:24:00Z</time>
      </trkpt>
      <trkpt lat="44.33363" lon="2.58901">
        <ele>592.741</ele>
        <time>2013-01-24T09:24:06Z</time>
      </trkpt>
      <trkpt lat="44.33373" lon="2.58913">
        <ele>592.641</ele>
        <time>2013-01-24T09:24:12Z</time>
      </trkpt>
      <trkpt lat="44.33374" lon="2.58915">
        <ele>592.801</ele>
        <time>2013-01-24T09:24:13Z</time>
      </trkpt>
      <trkpt lat="44.33381" lon="2.58923">
        <ele>592.781</ele>
        <time>2013-01-24T09:24:18Z</time>
      </trkpt>
      <trkpt lat="44.3335" lon="2.58945">
        <ele>592.631</ele>
        <time>2013-01-24T09:24:22Z</time>
      </trkpt>
      <trkpt lat="44.3335" lon="2.58945">
        <ele>594.893</ele>
        <time>2013-01-24T09:24:29Z</time>
      </trkpt>
      <trkpt lat="44.3335" lon="2.58945">
        <ele>596.342</ele>
        <time>2013-01-24T09:24:34Z</time>
      </trkpt>
      <trkpt lat="44.3335" lon="2.58945">
        <ele>596.772</ele>
        <time>2013-01-24T09:24:42Z</time>
      </trkpt>
      <trkpt lat="44.3334" lon="2.58952">
        <ele>597.102</ele>
        <time>2013-01-24T09:24:51Z</time>
      </trkpt>
      <trkpt lat="44.33329" lon="2.58959">
        <ele>598.051</ele>
        <time>2013-01-24T09:24:59Z</time>
      </trkpt>
      <trkpt lat="44.33324" lon="2.58963">
        <ele>598.092</ele>
        <time>2013-01-24T09:25:05Z</time>
      </trkpt>
      <trkpt lat="44.33319" lon="2.58968">
        <ele>598.282</ele>
        <time>2013-01-24T09:25:10Z</time>
      </trkpt>
      <trkpt lat="44.33309" lon="2.58976">
        <ele>598.321</ele>
        <time>2013-01-24T09:25:15Z</time>
      </trkpt>
      <trkpt lat="44.33298" lon="2.58985">
        <ele>598.271</ele>
        <time>2013-01-24T09:25:20Z</time>
      </trkpt>
      <trkpt lat="44.33284" lon="2.58996">
        <ele>598.902</ele>
        <time>2013-01-24T09:25:26Z</time>
      </trkpt>
      <trkpt lat="44.33272" lon="2.59006">
        <ele>599.472</ele>
        <time>2013-01-24T09:25:31Z</time>
      </trkpt>
      <trkpt lat="44.33263" lon="2.59016">
        <ele>599.641</ele>
        <time>2013-01-24T09:25:35Z</time>
      </trkpt>
      <trkpt lat="44.33253" lon="2.59027">
        <ele>600.812</ele>
        <time>2013-01-24T09:25:39Z</time>
      </trkpt>
      <trkpt lat="44.33242" lon="2.5904">
        <ele>599.74</ele>
        <time>2013-01-24T09:25:44Z</time>
      </trkpt>
      <trkpt lat="44.33229" lon="2.59058">
        <ele>600.371</ele>
        <time>2013-01-24T09:25:51Z</time>
      </trkpt>
      <trkpt lat="44.33219" lon="2.59071">
        <ele>602.662</ele>
        <time>2013-01-24T09:25:56Z</time>
      </trkpt>
      <trkpt lat="44.3321" lon="2.59083">
        <ele>604.383</ele>
        <time>2013-01-24T09:26:00Z</time>
      </trkpt>
      <trkpt lat="44.33199" lon="2.591">
        <ele>605.222</ele>
        <time>2013-01-24T09:26:06Z</time>
      </trkpt>
      <trkpt lat="44.33196" lon="2.59105">
        <ele>604.941</ele>
        <time>2013-01-24T09:26:08Z</time>
      </trkpt>
      <trkpt lat="44.33191" lon="2.59112">
        <ele>603.471</ele>
        <time>2013-01-24T09:26:12Z</time>
      </trkpt>
      <trkpt lat="44.33203" lon="2.59149">
        <ele>603.562</ele>
        <time>2013-01-24T09:26:18Z</time>
      </trkpt>
      <trkpt lat="44.33202" lon="2.59149">
        <ele>603.462</ele>
        <time>2013-01-24T09:26:19Z</time>
      </trkpt>
      <trkpt lat="44.33205" lon="2.59147">
        <ele>601.961</ele>
        <time>2013-01-24T09:26:23Z</time>
      </trkpt>
      <trkpt lat="44.33217" lon="2.59149">
        <ele>600.86</ele>
        <time>2013-01-24T09:26:27Z</time>
      </trkpt>
      <trkpt lat="44.33224" lon="2.59158">
        <ele>599.279</ele>
        <time>2013-01-24T09:26:31Z</time>
      </trkpt>
      <trkpt lat="44.33223" lon="2.59172">
        <ele>598.11</ele>
        <time>2013-01-24T09:26:34Z</time>
      </trkpt>
      <trkpt lat="44.3322" lon="2.59201">
        <ele>597.491</ele>
        <time>2013-01-24T09:26:41Z</time>
      </trkpt>
      <trkpt lat="44.33224" lon="2.59221">
        <ele>598.462</ele>
        <time>2013-01-24T09:26:46Z</time>
      </trkpt>
      <trkpt lat="44.33229" lon="2.59237">
        <ele>600.724</ele>
        <time>2013-01-24T09:26:51Z</time>
      </trkpt>
      <trkpt lat="44.33228" lon="2.59252">
        <ele>601.833</ele>
        <time>2013-01-24T09:26:56Z</time>
      </trkpt>
      <trkpt lat="44.33218" lon="2.59265">
        <ele>603.134</ele>
        <time>2013-01-24T09:27:01Z</time>
      </trkpt>
      <trkpt lat="44.33207" lon="2.59271">
        <ele>603.802</ele>
        <time>2013-01-24T09:27:08Z</time>
      </trkpt>
      <trkpt lat="44.33194" lon="2.59316">
        <ele>605.683</ele>
        <time>2013-01-24T09:27:15Z</time>
      </trkpt>
      <trkpt lat="44.33186" lon="2.5933">
        <ele>606.093</ele>
        <time>2013-01-24T09:27:21Z</time>
      </trkpt>
      <trkpt lat="44.33179" lon="2.59347">
        <ele>606.853</ele>
        <time>2013-01-24T09:27:26Z</time>
      </trkpt>
      <trkpt lat="44.33171" lon="2.5937">
        <ele>606.132</ele>
        <time>2013-01-24T09:27:32Z</time>
      </trkpt>
      <trkpt lat="44.33174" lon="2.59373">
        <ele>605.453</ele>
        <time>2013-01-24T09:27:35Z</time>
      </trkpt>
      <trkpt lat="44.33172" lon="2.59371">
        <ele>605.312</ele>
        <time>2013-01-24T09:27:40Z</time>
      </trkpt>
      <trkpt lat="44.3316" lon="2.59359">
        <ele>603.121</ele>
        <time>2013-01-24T09:27:46Z</time>
      </trkpt>
      <trkpt lat="44.33148" lon="2.59347">
        <ele>600.691</ele>
        <time>2013-01-24T09:27:53Z</time>
      </trkpt>
      <trkpt lat="44.33137" lon="2.59338">
        <ele>600.712</ele>
        <time>2013-01-24T09:27:57Z</time>
      </trkpt>
      <trkpt lat="44.33106" lon="2.59371">
        <ele>601.723</ele>
        <time>2013-01-24T09:28:01Z</time>
      </trkpt>
      <trkpt lat="44.33103" lon="2.59367">
        <ele>602.943</ele>
        <time>2013-01-24T09:28:03Z</time>
      </trkpt>
      <trkpt lat="44.33108" lon="2.59336">
        <ele>604.243</ele>
        <time>2013-01-24T09:28:08Z</time>
      </trkpt>
      <trkpt lat="44.33107" lon="2.59338">
        <ele>604.593</ele>
        <time>2013-01-24T09:28:10Z</time>
      </trkpt>
      <trkpt lat="44.33104" lon="2.59352">
        <ele>605.182</ele>
        <time>2013-01-24T09:28:16Z</time>
      </trkpt>
      <trkpt lat="44.33102" lon="2.59364">
        <ele>605.992</ele>
        <time>2013-01-24T09:28:20Z</time>
      </trkpt>
      <trkpt lat="44.33115" lon="2.59381">
        <ele>604.651</ele>
        <time>2013-01-24T09:28:25Z</time>
      </trkpt>
      <trkpt lat="44.33124" lon="2.59391">
        <ele>605.232</ele>
        <time>2013-01-24T09:28:30Z</time>
      </trkpt>
      <trkpt lat="44.33132" lon="2.59401">
        <ele>605.712</ele>
        <time>2013-01-24T09:28:35Z</time>
      </trkpt>
      <trkpt lat="44.33139" lon="2.59409">
        <ele>605.631</ele>
        <time>2013-01-24T09:28:39Z</time>
      </trkpt>
      <trkpt lat="44.33149" lon="2.5942">
        <ele>606.412</ele>
        <time>2013-01-24T09:28:44Z</time>
      </trkpt>
      <trkpt lat="44.3316" lon="2.59433">
        <ele>606.292</ele>
        <time>2013-01-24T09:28:50Z</time>
      </trkpt>
      <trkpt lat="44.33167" lon="2.59441">
        <ele>606.782</ele>
        <time>2013-01-24T09:28:54Z</time>
      </trkpt>
      <trkpt lat="44.33179" lon="2.59453">
        <ele>606.811</ele>
        <time>2013-01-24T09:29:00Z</time>
      </trkpt>
      <trkpt lat="44.33189" lon="2.59465">
        <ele>606.902</ele>
        <time>2013-01-24T09:29:05Z</time>
      </trkpt>
      <trkpt lat="44.33202" lon="2.5948">
        <ele>607.601</ele>
        <time>2013-01-24T09:29:11Z</time>
      </trkpt>
      <trkpt lat="44.33212" lon="2.59492">
        <ele>607.822</ele>
        <time>2013-01-24T09:29:16Z</time>
      </trkpt>
      <trkpt lat="44.33222" lon="2.59503">
        <ele>607.892</ele>
        <time>2013-01-24T09:29:21Z</time>
      </trkpt>
      <trkpt lat="44.33238" lon="2.59521">
        <ele>607.492</ele>
        <time>2013-01-24T09:29:28Z</time>
      </trkpt>
      <trkpt lat="44.33249" lon="2.59534">
        <ele>609.373</ele>
        <time>2013-01-24T09:29:34Z</time>
      </trkpt>
      <trkpt lat="44.33258" lon="2.59545">
        <ele>609.232</ele>
        <time>2013-01-24T09:29:39Z</time>
      </trkpt>
      <trkpt lat="44.33266" lon="2.59554">
        <ele>609.012</ele>
        <time>2013-01-24T09:29:43Z</time>
      </trkpt>
      <trkpt lat="44.33276" lon="2.59565">
        <ele>608.391</ele>
        <time>2013-01-24T09:29:48Z</time>
      </trkpt>
      <trkpt lat="44.3328" lon="2.5957">
        <ele>608.572</ele>
        <time>2013-01-24T09:29:50Z</time>
      </trkpt>
      <trkpt lat="44.33289" lon="2.5958">
        <ele>608.802</ele>
        <time>2013-01-24T09:29:55Z</time>
      </trkpt>
      <trkpt lat="44.33295" lon="2.59586">
        <ele>608.842</ele>
        <time>2013-01-24T09:29:58Z</time>
      </trkpt>
      <trkpt lat="44.33292" lon="2.59597">
        <ele>608.582</ele>
        <time>2013-01-24T09:30:02Z</time>
      </trkpt>
      <trkpt lat="44.33279" lon="2.59608">
        <ele>608.301</ele>
        <time>2013-01-24T09:30:08Z</time>
      </trkpt>
      <trkpt lat="44.33273" lon="2.59613">
        <ele>608.763</ele>
        <time>2013-01-24T09:30:11Z</time>
      </trkpt>
      <trkpt lat="44.33262" lon="2.59624">
        <ele>613.085</ele>
        <time>2013-01-24T09:30:17Z</time>
      </trkpt>
      <trkpt lat="44.33253" lon="2.59636">
        <ele>615.675</ele>
        <time>2013-01-24T09:30:22Z</time>
      </trkpt>
      <trkpt lat="44.33245" lon="2.59644">
        <ele>618.185</ele>
        <time>2013-01-24T09:30:27Z</time>
      </trkpt>
      <trkpt lat="44.33233" lon="2.59659">
        <ele>620.905</ele>
        <time>2013-01-24T09:30:33Z</time>
      </trkpt>
      <trkpt lat="44.33227" lon="2.59667">
        <ele>622.174</ele>
        <time>2013-01-24T09:30:38Z</time>
      </trkpt>
      <trkpt lat="44.33214" lon="2.59685">
        <ele>623.843</ele>
        <time>2013-01-24T09:30:44Z</time>
      </trkpt>
      <trkpt lat="44.33203" lon="2.59689">
        <ele>624.432</ele>
        <time>2013-01-24T09:30:50Z</time>
      </trkpt>
      <trkpt lat="44.332" lon="2.59691">
        <ele>623.382</ele>
        <time>2013-01-24T09:30:55Z</time>
      </trkpt>
      <trkpt lat="44.33194" lon="2.59696">
        <ele>620.222</ele>
        <time>2013-01-24T09:31:03Z</time>
      </trkpt>
      <trkpt lat="44.33194" lon="2.59696">
        <ele>621.514</ele>
        <time>2013-01-24T09:31:10Z</time>
      </trkpt>
      <trkpt lat="44.33194" lon="2.59696">
        <ele>622.413</ele>
        <time>2013-01-24T09:31:17Z</time>
      </trkpt>
      <trkpt lat="44.33194" lon="2.59696">
        <ele>622.548</ele>
        <time>2013-01-24T09:31:18Z</time>
      </trkpt>
      <trkpt lat="44.33167" lon="2.5969">
        <ele>621.353</ele>
        <time>2013-01-24T09:31:36Z</time>
      </trkpt>
      <trkpt lat="44.33194" lon="2.59696">
        <ele>621.643</ele>
        <time>2013-01-24T09:31:37Z</time>
      </trkpt>
      <trkpt lat="44.33194" lon="2.59696">
        <ele>623.224</ele>
        <time>2013-01-24T09:31:42Z</time>
      </trkpt>
      <trkpt lat="44.33158" lon="2.59704">
        <ele>623.793</ele>
        <time>2013-01-24T09:31:46Z</time>
      </trkpt>
      <trkpt lat="44.3316" lon="2.59709">
        <ele>624.134</ele>
        <time>2013-01-24T09:31:47Z</time>
      </trkpt>
      <trkpt lat="44.33194" lon="2.59696">
        <ele>624.884</ele>
        <time>2013-01-24T09:31:52Z</time>
      </trkpt>
      <trkpt lat="44.33194" lon="2.59696">
        <ele>625.343</ele>
        <time>2013-01-24T09:31:57Z</time>
      </trkpt>
      <trkpt lat="44.3315" lon="2.59758">
        <ele>626.844</ele>
        <time>2013-01-24T09:32:03Z</time>
      </trkpt>
      <trkpt lat="44.331" lon="2.59764">
        <ele>628.083</ele>
        <time>2013-01-24T09:32:08Z</time>
      </trkpt>
      <trkpt lat="44.33097" lon="2.59786">
        <ele>628.873</ele>
        <time>2013-01-24T09:32:14Z</time>
      </trkpt>
      <trkpt lat="44.33129" lon="2.59816">
        <ele>629.293</ele>
        <time>2013-01-24T09:32:19Z</time>
      </trkpt>
      <trkpt lat="44.33138" lon="2.59815">
        <ele>625.552</ele>
        <time>2013-01-24T09:32:23Z</time>
      </trkpt>
      <trkpt lat="44.33131" lon="2.59816">
        <ele>625.042</ele>
        <time>2013-01-24T09:32:24Z</time>
      </trkpt>
      <trkpt lat="44.33146" lon="2.59809">
        <ele>622.782</ele>
        <time>2013-01-24T09:32:29Z</time>
      </trkpt>
      <trkpt lat="44.33149" lon="2.59809">
        <ele>621.181</ele>
        <time>2013-01-24T09:32:33Z</time>
      </trkpt>
      <trkpt lat="44.33147" lon="2.59809">
        <ele>620.771</ele>
        <time>2013-01-24T09:32:34Z</time>
      </trkpt>
      <trkpt lat="44.33136" lon="2.59812">
        <ele>620.412</ele>
        <time>2013-01-24T09:32:39Z</time>
      </trkpt>
      <trkpt lat="44.33126" lon="2.59818">
        <ele>620.653</ele>
        <time>2013-01-24T09:32:44Z</time>
      </trkpt>
      <trkpt lat="44.33114" lon="2.59829">
        <ele>622.483</ele>
        <time>2013-01-24T09:32:49Z</time>
      </trkpt>
      <trkpt lat="44.33112" lon="2.59831">
        <ele>622.633</ele>
        <time>2013-01-24T09:32:53Z</time>
      </trkpt>
      <trkpt lat="44.33141" lon="2.59894">
        <ele>620.931</ele>
        <time>2013-01-24T09:32:58Z</time>
      </trkpt>
      <trkpt lat="44.33144" lon="2.59901">
        <ele>620.512</ele>
        <time>2013-01-24T09:33:01Z</time>
      </trkpt>
      <trkpt lat="44.33144" lon="2.59913">
        <ele>619.982</ele>
        <time>2013-01-24T09:33:04Z</time>
      </trkpt>
      <trkpt lat="44.33136" lon="2.5992">
        <ele>620.424</ele>
        <time>2013-01-24T09:33:08Z</time>
      </trkpt>
      <trkpt lat="44.33126" lon="2.5992">
        <ele>621.534</ele>
        <time>2013-01-24T09:33:12Z</time>
      </trkpt>
      <trkpt lat="44.33078" lon="2.59913">
        <ele>623.074</ele>
        <time>2013-01-24T09:33:17Z</time>
      </trkpt>
      <trkpt lat="44.33078" lon="2.59913">
        <ele>623.993</ele>
        <time>2013-01-24T09:33:19Z</time>
      </trkpt>
      <trkpt lat="44.33077" lon="2.59948">
        <ele>623.573</ele>
        <time>2013-01-24T09:33:25Z</time>
      </trkpt>
      <trkpt lat="44.33076" lon="2.59966">
        <ele>623.914</ele>
        <time>2013-01-24T09:33:30Z</time>
      </trkpt>
      <trkpt lat="44.33076" lon="2.59972">
        <ele>622.874</ele>
        <time>2013-01-24T09:33:36Z</time>
      </trkpt>
      <trkpt lat="44.33076" lon="2.59976">
        <ele>623.013</ele>
        <time>2013-01-24T09:34:25Z</time>
      </trkpt>
      <trkpt lat="44.33074" lon="2.5999">
        <ele>623.713</ele>
        <time>2013-01-24T09:34:32Z</time>
      </trkpt>
      <trkpt lat="44.3307" lon="2.60004">
        <ele>623.623</ele>
        <time>2013-01-24T09:34:38Z</time>
      </trkpt>
      <trkpt lat="44.33067" lon="2.60026">
        <ele>623.523</ele>
        <time>2013-01-24T09:34:45Z</time>
      </trkpt>
      <trkpt lat="44.33132" lon="2.60063">
        <ele>623.673</ele>
        <time>2013-01-24T09:34:50Z</time>
      </trkpt>
      <trkpt lat="44.33166" lon="2.60035">
        <ele>625.145</ele>
        <time>2013-01-24T09:34:56Z</time>
      </trkpt>
      <trkpt lat="44.33173" lon="2.60048">
        <ele>625.183</ele>
        <time>2013-01-24T09:35:01Z</time>
      </trkpt>
      <trkpt lat="44.33177" lon="2.60053">
        <ele>625.814</ele>
        <time>2013-01-24T09:35:06Z</time>
      </trkpt>
      <trkpt lat="44.33187" lon="2.60064">
        <ele>626.003</ele>
        <time>2013-01-24T09:35:11Z</time>
      </trkpt>
      <trkpt lat="44.33196" lon="2.60074">
        <ele>626.513</ele>
        <time>2013-01-24T09:35:16Z</time>
      </trkpt>
      <trkpt lat="44.33208" lon="2.60088">
        <ele>626.853</ele>
        <time>2013-01-24T09:35:22Z</time>
      </trkpt>
      <trkpt lat="44.3321" lon="2.60089">
        <ele>626.693</ele>
        <time>2013-01-24T09:35:23Z</time>
      </trkpt>
      <trkpt lat="44.33212" lon="2.60091">
        <ele>626.083</ele>
        <time>2013-01-24T09:35:29Z</time>
      </trkpt>
      <trkpt lat="44.33191" lon="2.60142">
        <ele>626.093</ele>
        <time>2013-01-24T09:35:30Z</time>
      </trkpt>
      <trkpt lat="44.33192" lon="2.60139">
        <ele>625.737</ele>
        <time>2013-01-24T09:35:33Z</time>
      </trkpt>
      <trkpt lat="44.33221" lon="2.601">
        <ele>625.304</ele>
        <time>2013-01-24T09:35:42Z</time>
      </trkpt>
      <trkpt lat="44.33223" lon="2.60101">
        <ele>625.123</ele>
        <time>2013-01-24T09:35:43Z</time>
      </trkpt>
      <trkpt lat="44.33228" lon="2.60106">
        <ele>626.365</ele>
        <time>2013-01-24T09:35:50Z</time>
      </trkpt>
      <trkpt lat="44.33228" lon="2.60106">
        <ele>626.614</ele>
        <time>2013-01-24T09:35:52Z</time>
      </trkpt>
      <trkpt lat="44.3321" lon="2.60195">
        <ele>628.086</ele>
        <time>2013-01-24T09:35:58Z</time>
      </trkpt>
      <trkpt lat="44.33212" lon="2.60199">
        <ele>628.365</ele>
        <time>2013-01-24T09:35:59Z</time>
      </trkpt>
      <trkpt lat="44.3322" lon="2.60217">
        <ele>629.324</ele>
        <time>2013-01-24T09:36:05Z</time>
      </trkpt>
      <trkpt lat="44.33228" lon="2.60235">
        <ele>629.514</ele>
        <time>2013-01-24T09:36:11Z</time>
      </trkpt>
      <trkpt lat="44.33234" lon="2.60255">
        <ele>628.944</ele>
        <time>2013-01-24T09:36:17Z</time>
      </trkpt>
      <trkpt lat="44.33236" lon="2.60258">
        <ele>629.385</ele>
        <time>2013-01-24T09:36:18Z</time>
      </trkpt>
      <trkpt lat="44.33242" lon="2.60274">
        <ele>629.975</ele>
        <time>2013-01-24T09:36:23Z</time>
      </trkpt>
      <trkpt lat="44.3325" lon="2.60293">
        <ele>629.944</ele>
        <time>2013-01-24T09:36:29Z</time>
      </trkpt>
      <trkpt lat="44.33257" lon="2.6031">
        <ele>629.494</ele>
        <time>2013-01-24T09:36:34Z</time>
      </trkpt>
      <trkpt lat="44.33261" lon="2.60333">
        <ele>630.916</ele>
        <time>2013-01-24T09:36:40Z</time>
      </trkpt>
      <trkpt lat="44.33262" lon="2.60352">
        <ele>631.174</ele>
        <time>2013-01-24T09:36:45Z</time>
      </trkpt>
      <trkpt lat="44.33313" lon="2.60376">
        <ele>628.963</ele>
        <time>2013-01-24T09:36:51Z</time>
      </trkpt>
      <trkpt lat="44.33311" lon="2.60394">
        <ele>628.144</ele>
        <time>2013-01-24T09:36:56Z</time>
      </trkpt>
      <trkpt lat="44.33309" lon="2.60408">
        <ele>627.584</ele>
        <time>2013-01-24T09:37:00Z</time>
      </trkpt>
      <trkpt lat="44.33305" lon="2.60436">
        <ele>627.023</ele>
        <time>2013-01-24T09:37:07Z</time>
      </trkpt>
      <trkpt lat="44.33303" lon="2.60443">
        <ele>626.633</ele>
        <time>2013-01-24T09:37:09Z</time>
      </trkpt>
      <trkpt lat="44.33279" lon="2.6044">
        <ele>624.592</ele>
        <time>2013-01-24T09:37:14Z</time>
      </trkpt>
      <trkpt lat="44.33282" lon="2.6044">
        <ele>623.952</ele>
        <time>2013-01-24T09:37:15Z</time>
      </trkpt>
      <trkpt lat="44.33292" lon="2.60441">
        <ele>620.75</ele>
        <time>2013-01-24T09:37:19Z</time>
      </trkpt>
      <trkpt lat="44.33303" lon="2.60456">
        <ele>616.792</ele>
        <time>2013-01-24T09:37:25Z</time>
      </trkpt>
      <trkpt lat="44.33303" lon="2.60458">
        <ele>616.262</ele>
        <time>2013-01-24T09:37:26Z</time>
      </trkpt>
      <trkpt lat="44.33303" lon="2.60455">
        <ele>613.742</ele>
        <time>2013-01-24T09:37:30Z</time>
      </trkpt>
      <trkpt lat="44.33305" lon="2.60436">
        <ele>612.033</ele>
        <time>2013-01-24T09:37:35Z</time>
      </trkpt>
      <trkpt lat="44.33307" lon="2.60422">
        <ele>611.403</ele>
        <time>2013-01-24T09:37:39Z</time>
      </trkpt>
      <trkpt lat="44.33308" lon="2.60414">
        <ele>611.023</ele>
        <time>2013-01-24T09:37:41Z</time>
      </trkpt>
      <trkpt lat="44.33311" lon="2.60392">
        <ele>611.474</ele>
        <time>2013-01-24T09:37:47Z</time>
      </trkpt>
      <trkpt lat="44.33313" lon="2.60378">
        <ele>611.874</ele>
        <time>2013-01-24T09:37:51Z</time>
      </trkpt>
      <trkpt lat="44.33314" lon="2.60368">
        <ele>612.144</ele>
        <time>2013-01-24T09:37:56Z</time>
      </trkpt>
      <trkpt lat="44.33316" lon="2.60348">
        <ele>612.945</ele>
        <time>2013-01-24T09:38:02Z</time>
      </trkpt>
      <trkpt lat="44.33318" lon="2.60332">
        <ele>612.794</ele>
        <time>2013-01-24T09:38:06Z</time>
      </trkpt>
      <trkpt lat="44.33319" lon="2.60317">
        <ele>612.814</ele>
        <time>2013-01-24T09:38:11Z</time>
      </trkpt>
      <trkpt lat="44.33319" lon="2.60309">
        <ele>612.874</ele>
        <time>2013-01-24T09:38:13Z</time>
      </trkpt>
      <trkpt lat="44.3332" lon="2.60292">
        <ele>612.423</ele>
        <time>2013-01-24T09:38:18Z</time>
      </trkpt>
      <trkpt lat="44.3332" lon="2.60289">
        <ele>612.474</ele>
        <time>2013-01-24T09:38:19Z</time>
      </trkpt>
      <trkpt lat="44.33318" lon="2.60262">
        <ele>613.174</ele>
        <time>2013-01-24T09:38:26Z</time>
      </trkpt>
      <trkpt lat="44.33314" lon="2.60249">
        <ele>613.564</ele>
        <time>2013-01-24T09:38:30Z</time>
      </trkpt>
      <trkpt lat="44.33309" lon="2.60237">
        <ele>613.924</ele>
        <time>2013-01-24T09:38:37Z</time>
      </trkpt>
      <trkpt lat="44.33306" lon="2.6023">
        <ele>615.065</ele>
        <time>2013-01-24T09:38:44Z</time>
      </trkpt>
      <trkpt lat="44.33301" lon="2.60219">
        <ele>615.485</ele>
        <time>2013-01-24T09:38:50Z</time>
      </trkpt>
      <trkpt lat="44.33298" lon="2.6021">
        <ele>615.804</ele>
        <time>2013-01-24T09:38:56Z</time>
      </trkpt>
      <trkpt lat="44.33294" lon="2.602">
        <ele>615.334</ele>
        <time>2013-01-24T09:39:01Z</time>
      </trkpt>
      <trkpt lat="44.33288" lon="2.60185">
        <ele>616.415</ele>
        <time>2013-01-24T09:39:09Z</time>
      </trkpt>
      <trkpt lat="44.33287" lon="2.6018">
        <ele>616.534</ele>
        <time>2013-01-24T09:39:12Z</time>
      </trkpt>
      <trkpt lat="44.33283" lon="2.60169">
        <ele>616.364</ele>
        <time>2013-01-24T09:39:19Z</time>
      </trkpt>
      <trkpt lat="44.33278" lon="2.60155">
        <ele>615.192</ele>
        <time>2013-01-24T09:39:27Z</time>
      </trkpt>
      <trkpt lat="44.33277" lon="2.60154">
        <ele>614.722</ele>
        <time>2013-01-24T09:39:28Z</time>
      </trkpt>
      <trkpt lat="44.33267" lon="2.60139">
        <ele>614.884</ele>
        <time>2013-01-24T09:39:35Z</time>
      </trkpt>
      <trkpt lat="44.33258" lon="2.6013">
        <ele>614.734</ele>
        <time>2013-01-24T09:39:39Z</time>
      </trkpt>
      <trkpt lat="44.33242" lon="2.60115">
        <ele>615.524</ele>
        <time>2013-01-24T09:39:46Z</time>
      </trkpt>
      <trkpt lat="44.33232" lon="2.60108">
        <ele>615.514</ele>
        <time>2013-01-24T09:39:50Z</time>
      </trkpt>
      <trkpt lat="44.33219" lon="2.60098">
        <ele>614.503</ele>
        <time>2013-01-24T09:39:55Z</time>
      </trkpt>
      <trkpt lat="44.33209" lon="2.60088">
        <ele>614.334</ele>
        <time>2013-01-24T09:39:59Z</time>
      </trkpt>
      <trkpt lat="44.33197" lon="2.60075">
        <ele>613.273</ele>
        <time>2013-01-24T09:40:04Z</time>
      </trkpt>
      <trkpt lat="44.33194" lon="2.60071">
        <ele>612.533</ele>
        <time>2013-01-24T09:40:08Z</time>
      </trkpt>
      <trkpt lat="44.33186" lon="2.60062">
        <ele>611.283</ele>
        <time>2013-01-24T09:40:17Z</time>
      </trkpt>
      <trkpt lat="44.33182" lon="2.60058">
        <ele>610.533</ele>
        <time>2013-01-24T09:40:22Z</time>
      </trkpt>
      <trkpt lat="44.33178" lon="2.60053">
        <ele>610.263</ele>
        <time>2013-01-24T09:40:30Z</time>
      </trkpt>
      <trkpt lat="44.33176" lon="2.60051">
        <ele>609.942</ele>
        <time>2013-01-24T09:40:32Z</time>
      </trkpt>
      <trkpt lat="44.33195" lon="2.60016">
        <ele>608.732</ele>
        <time>2013-01-24T09:40:40Z</time>
      </trkpt>
      <trkpt lat="44.33196" lon="2.60014">
        <ele>608.372</ele>
        <time>2013-01-24T09:40:42Z</time>
      </trkpt>
      <trkpt lat="44.33206" lon="2.60007">
        <ele>606.211</ele>
        <time>2013-01-24T09:40:48Z</time>
      </trkpt>
      <trkpt lat="44.33178" lon="2.60054">
        <ele>604.791</ele>
        <time>2013-01-24T09:40:52Z</time>
      </trkpt>
      <trkpt lat="44.33229" lon="2.59976">
        <ele>602.701</ele>
        <time>2013-01-24T09:40:59Z</time>
      </trkpt>
      <trkpt lat="44.33238" lon="2.59963">
        <ele>601.832</ele>
        <time>2013-01-24T09:41:03Z</time>
      </trkpt>
      <trkpt lat="44.3325" lon="2.59949">
        <ele>600.902</ele>
        <time>2013-01-24T09:41:08Z</time>
      </trkpt>
      <trkpt lat="44.33268" lon="2.59929">
        <ele>600.033</ele>
        <time>2013-01-24T09:41:15Z</time>
      </trkpt>
      <trkpt lat="44.33278" lon="2.59918">
        <ele>599.463</ele>
        <time>2013-01-24T09:41:19Z</time>
      </trkpt>
      <trkpt lat="44.3329" lon="2.5991">
        <ele>599.793</ele>
        <time>2013-01-24T09:41:23Z</time>
      </trkpt>
      <trkpt lat="44.33295" lon="2.59909">
        <ele>599.903</ele>
        <time>2013-01-24T09:41:25Z</time>
      </trkpt>
      <trkpt lat="44.33299" lon="2.59905">
        <ele>599.993</ele>
        <time>2013-01-24T09:41:27Z</time>
      </trkpt>
      <trkpt lat="44.3331" lon="2.59911">
        <ele>599.643</ele>
        <time>2013-01-24T09:41:31Z</time>
      </trkpt>
      <trkpt lat="44.33318" lon="2.5993">
        <ele>599.913</ele>
        <time>2013-01-24T09:41:37Z</time>
      </trkpt>
      <trkpt lat="44.3332" lon="2.59933">
        <ele>599.883</ele>
        <time>2013-01-24T09:41:38Z</time>
      </trkpt>
      <trkpt lat="44.33331" lon="2.59933">
        <ele>599.673</ele>
        <time>2013-01-24T09:41:42Z</time>
      </trkpt>
      <trkpt lat="44.3334" lon="2.5992">
        <ele>598.883</ele>
        <time>2013-01-24T09:41:47Z</time>
      </trkpt>
      <trkpt lat="44.33342" lon="2.59916">
        <ele>598.672</ele>
        <time>2013-01-24T09:41:48Z</time>
      </trkpt>
      <trkpt lat="44.33348" lon="2.59903">
        <ele>598.353</ele>
        <time>2013-01-24T09:41:52Z</time>
      </trkpt>
      <trkpt lat="44.33359" lon="2.59885">
        <ele>597.713</ele>
        <time>2013-01-24T09:41:58Z</time>
      </trkpt>
      <trkpt lat="44.33367" lon="2.59866">
        <ele>596.072</ele>
        <time>2013-01-24T09:42:03Z</time>
      </trkpt>
      <trkpt lat="44.33376" lon="2.5984">
        <ele>594.662</ele>
        <time>2013-01-24T09:42:09Z</time>
      </trkpt>
      <trkpt lat="44.33383" lon="2.59819">
        <ele>594.133</ele>
        <time>2013-01-24T09:42:14Z</time>
      </trkpt>
      <trkpt lat="44.33391" lon="2.59805">
        <ele>593.913</ele>
        <time>2013-01-24T09:42:18Z</time>
      </trkpt>
      <trkpt lat="44.33396" lon="2.59798">
        <ele>592.882</ele>
        <time>2013-01-24T09:42:21Z</time>
      </trkpt>
      <trkpt lat="44.334" lon="2.5978">
        <ele>590.761</ele>
        <time>2013-01-24T09:42:26Z</time>
      </trkpt>
      <trkpt lat="44.33394" lon="2.59763">
        <ele>589.311</ele>
        <time>2013-01-24T09:42:30Z</time>
      </trkpt>
      <trkpt lat="44.33347" lon="2.59733">
        <ele>588.802</ele>
        <time>2013-01-24T09:42:33Z</time>
      </trkpt>
      <trkpt lat="44.33351" lon="2.59685">
        <ele>588.603</ele>
        <time>2013-01-24T09:42:39Z</time>
      </trkpt>
      <trkpt lat="44.33358" lon="2.59673">
        <ele>589.614</ele>
        <time>2013-01-24T09:42:44Z</time>
      </trkpt>
      <trkpt lat="44.33348" lon="2.59715">
        <ele>589.844</ele>
        <time>2013-01-24T09:42:45Z</time>
      </trkpt>
      <trkpt lat="44.33361" lon="2.59668">
        <ele>590.224</ele>
        <time>2013-01-24T09:42:50Z</time>
      </trkpt>
      <trkpt lat="44.33361" lon="2.59668">
        <ele>591.924</ele>
        <time>2013-01-24T09:42:57Z</time>
      </trkpt>
      <trkpt lat="44.33361" lon="2.59668">
        <ele>591.503</ele>
        <time>2013-01-24T09:43:03Z</time>
      </trkpt>
      <trkpt lat="44.33403" lon="2.5963">
        <ele>590.213</ele>
        <time>2013-01-24T09:43:09Z</time>
      </trkpt>
      <trkpt lat="44.33406" lon="2.59625">
        <ele>588.922</ele>
        <time>2013-01-24T09:43:14Z</time>
      </trkpt>
      <trkpt lat="44.33409" lon="2.59616">
        <ele>588.032</ele>
        <time>2013-01-24T09:43:17Z</time>
      </trkpt>
      <trkpt lat="44.33413" lon="2.59606">
        <ele>588.282</ele>
        <time>2013-01-24T09:43:22Z</time>
      </trkpt>
      <trkpt lat="44.33411" lon="2.59593">
        <ele>589.172</ele>
        <time>2013-01-24T09:43:28Z</time>
      </trkpt>
      <trkpt lat="44.3341" lon="2.59581">
        <ele>590.573</ele>
        <time>2013-01-24T09:43:34Z</time>
      </trkpt>
      <trkpt lat="44.33406" lon="2.59571">
        <ele>592.274</ele>
        <time>2013-01-24T09:43:38Z</time>
      </trkpt>
      <trkpt lat="44.33403" lon="2.59559">
        <ele>591.373</ele>
        <time>2013-01-24T09:43:42Z</time>
      </trkpt>
      <trkpt lat="44.33402" lon="2.59556">
        <ele>590.973</ele>
        <time>2013-01-24T09:43:43Z</time>
      </trkpt>
      <trkpt lat="44.33398" lon="2.59545">
        <ele>591.733</ele>
        <time>2013-01-24T09:43:48Z</time>
      </trkpt>
      <trkpt lat="44.33389" lon="2.59529">
        <ele>589.883</ele>
        <time>2013-01-24T09:43:54Z</time>
      </trkpt>
      <trkpt lat="44.33382" lon="2.59518">
        <ele>590.784</ele>
        <time>2013-01-24T09:43:59Z</time>
      </trkpt>
      <trkpt lat="44.33381" lon="2.59516">
        <ele>591.054</ele>
        <time>2013-01-24T09:44:00Z</time>
      </trkpt>
      <trkpt lat="44.3338" lon="2.59491">
        <ele>587.311</ele>
        <time>2013-01-24T09:44:06Z</time>
      </trkpt>
      <trkpt lat="44.3338" lon="2.59489">
        <ele>587.111</ele>
        <time>2013-01-24T09:44:07Z</time>
      </trkpt>
      <trkpt lat="44.33378" lon="2.59466">
        <ele>587.582</ele>
        <time>2013-01-24T09:44:14Z</time>
      </trkpt>
      <trkpt lat="44.33376" lon="2.59453">
        <ele>587.753</ele>
        <time>2013-01-24T09:44:19Z</time>
      </trkpt>
      <trkpt lat="44.33375" lon="2.59449">
        <ele>587.993</ele>
        <time>2013-01-24T09:44:20Z</time>
      </trkpt>
      <trkpt lat="44.33372" lon="2.59439">
        <ele>588.253</ele>
        <time>2013-01-24T09:44:25Z</time>
      </trkpt>
      <trkpt lat="44.33369" lon="2.59427">
        <ele>589.434</ele>
        <time>2013-01-24T09:44:30Z</time>
      </trkpt>
      <trkpt lat="44.33365" lon="2.59419">
        <ele>588.653</ele>
        <time>2013-01-24T09:44:34Z</time>
      </trkpt>
      <trkpt lat="44.33361" lon="2.59413">
        <ele>585.342</ele>
        <time>2013-01-24T09:44:37Z</time>
      </trkpt>
      <trkpt lat="44.33361" lon="2.59412">
        <ele>584.193</ele>
        <time>2013-01-24T09:44:42Z</time>
      </trkpt>
      <trkpt lat="44.33357" lon="2.5941">
        <ele>586.233</ele>
        <time>2013-01-24T09:44:46Z</time>
      </trkpt>
      <trkpt lat="44.33364" lon="2.59377">
        <ele>585.092</ele>
        <time>2013-01-24T09:44:49Z</time>
      </trkpt>
      <trkpt lat="44.33356" lon="2.5941">
        <ele>583.491</ele>
        <time>2013-01-24T09:44:51Z</time>
      </trkpt>
      <trkpt lat="44.33379" lon="2.59352">
        <ele>578.661</ele>
        <time>2013-01-24T09:44:59Z</time>
      </trkpt>
      <trkpt lat="44.33361" lon="2.59413">
        <ele>576.87</ele>
        <time>2013-01-24T09:45:03Z</time>
      </trkpt>
      <trkpt lat="44.33361" lon="2.59413">
        <ele>575.891</ele>
        <time>2013-01-24T09:45:06Z</time>
      </trkpt>
      <trkpt lat="44.33361" lon="2.59413">
        <ele>574.951</ele>
        <time>2013-01-24T09:45:09Z</time>
      </trkpt>
      <trkpt lat="44.33367" lon="2.59422">
        <ele>572.371</ele>
        <time>2013-01-24T09:45:15Z</time>
      </trkpt>
      <trkpt lat="44.33368" lon="2.59426">
        <ele>570.141</ele>
        <time>2013-01-24T09:45:19Z</time>
      </trkpt>
      <trkpt lat="44.33371" lon="2.59437">
        <ele>570.462</ele>
        <time>2013-01-24T09:45:24Z</time>
      </trkpt>
      <trkpt lat="44.33374" lon="2.59446">
        <ele>570.942</ele>
        <time>2013-01-24T09:45:28Z</time>
      </trkpt>
      <trkpt lat="44.33375" lon="2.59451">
        <ele>571.552</ele>
        <time>2013-01-24T09:45:31Z</time>
      </trkpt>
      <trkpt lat="44.33378" lon="2.59461">
        <ele>570.842</ele>
        <time>2013-01-24T09:45:36Z</time>
      </trkpt>
      <trkpt lat="44.33379" lon="2.59471">
        <ele>573.223</ele>
        <time>2013-01-24T09:45:41Z</time>
      </trkpt>
      <trkpt lat="44.3338" lon="2.59474">
        <ele>573.063</ele>
        <time>2013-01-24T09:45:42Z</time>
      </trkpt>
      <trkpt lat="44.3338" lon="2.59482">
        <ele>573.623</ele>
        <time>2013-01-24T09:45:47Z</time>
      </trkpt>
      <trkpt lat="44.3338" lon="2.59492">
        <ele>574.453</ele>
        <time>2013-01-24T09:45:51Z</time>
      </trkpt>
      <trkpt lat="44.3338" lon="2.59502">
        <ele>576.334</ele>
        <time>2013-01-24T09:45:56Z</time>
      </trkpt>
      <trkpt lat="44.3338" lon="2.5951">
        <ele>579.494</ele>
        <time>2013-01-24T09:46:00Z</time>
      </trkpt>
      <trkpt lat="44.3338" lon="2.59516">
        <ele>580.984</ele>
        <time>2013-01-24T09:46:03Z</time>
      </trkpt>
      <trkpt lat="44.334" lon="2.5955">
        <ele>584.454</ele>
        <time>2013-01-24T09:46:10Z</time>
      </trkpt>
      <trkpt lat="44.33401" lon="2.59555">
        <ele>586.523</ele>
        <time>2013-01-24T09:46:15Z</time>
      </trkpt>
      <trkpt lat="44.33404" lon="2.59564">
        <ele>588.264</ele>
        <time>2013-01-24T09:46:19Z</time>
      </trkpt>
      <trkpt lat="44.33406" lon="2.5957">
        <ele>587.304</ele>
        <time>2013-01-24T09:46:21Z</time>
      </trkpt>
      <trkpt lat="44.33411" lon="2.59588">
        <ele>584.163</ele>
        <time>2013-01-24T09:46:28Z</time>
      </trkpt>
      <trkpt lat="44.33412" lon="2.59597">
        <ele>585.443</ele>
        <time>2013-01-24T09:46:31Z</time>
      </trkpt>
      <trkpt lat="44.33413" lon="2.59606">
        <ele>585.203</ele>
        <time>2013-01-24T09:46:36Z</time>
      </trkpt>
      <trkpt lat="44.33413" lon="2.59606">
        <ele>584.443</ele>
        <time>2013-01-24T09:46:38Z</time>
      </trkpt>
      <trkpt lat="44.33409" lon="2.59618">
        <ele>583.563</ele>
        <time>2013-01-24T09:46:43Z</time>
      </trkpt>
      <trkpt lat="44.33405" lon="2.59627">
        <ele>584.454</ele>
        <time>2013-01-24T09:46:49Z</time>
      </trkpt>
      <trkpt lat="44.33397" lon="2.59639">
        <ele>586.784</ele>
        <time>2013-01-24T09:46:56Z</time>
      </trkpt>
      <trkpt lat="44.33393" lon="2.59644">
        <ele>585.724</ele>
        <time>2013-01-24T09:47:01Z</time>
      </trkpt>
      <trkpt lat="44.33391" lon="2.59647">
        <ele>588.203</ele>
        <time>2013-01-24T09:47:08Z</time>
      </trkpt>
      <trkpt lat="44.3339" lon="2.5965">
        <ele>587.633</ele>
        <time>2013-01-24T09:47:15Z</time>
      </trkpt>
      <trkpt lat="44.33385" lon="2.59657">
        <ele>589.684</ele>
        <time>2013-01-24T09:47:19Z</time>
      </trkpt>
      <trkpt lat="44.33385" lon="2.59657">
        <ele>591.044</ele>
        <time>2013-01-24T09:47:24Z</time>
      </trkpt>
      <trkpt lat="44.33413" lon="2.59729">
        <ele>590.323</ele>
        <time>2013-01-24T09:47:29Z</time>
      </trkpt>
      <trkpt lat="44.33413" lon="2.59731">
        <ele>590.593</ele>
        <time>2013-01-24T09:47:31Z</time>
      </trkpt>
      <trkpt lat="44.33418" lon="2.59736">
        <ele>588.622</ele>
        <time>2013-01-24T09:47:37Z</time>
      </trkpt>
      <trkpt lat="44.33423" lon="2.59743">
        <ele>587.012</ele>
        <time>2013-01-24T09:47:41Z</time>
      </trkpt>
      <trkpt lat="44.33427" lon="2.59745">
        <ele>585.483</ele>
        <time>2013-01-24T09:47:45Z</time>
      </trkpt>
      <trkpt lat="44.33427" lon="2.59745">
        <ele>584.872</ele>
        <time>2013-01-24T09:47:46Z</time>
      </trkpt>
      <trkpt lat="44.33429" lon="2.59733">
        <ele>582.421</ele>
        <time>2013-01-24T09:47:52Z</time>
      </trkpt>
      <trkpt lat="44.33436" lon="2.59729">
        <ele>579.93</ele>
        <time>2013-01-24T09:47:56Z</time>
      </trkpt>
      <trkpt lat="44.33443" lon="2.59725">
        <ele>578.341</ele>
        <time>2013-01-24T09:47:59Z</time>
      </trkpt>
      <trkpt lat="44.33454" lon="2.59717">
        <ele>577</ele>
        <time>2013-01-24T09:48:05Z</time>
      </trkpt>
      <trkpt lat="44.33462" lon="2.59707">
        <ele>575.582</ele>
        <time>2013-01-24T09:48:10Z</time>
      </trkpt>
      <trkpt lat="44.33466" lon="2.59703">
        <ele>575.812</ele>
        <time>2013-01-24T09:48:13Z</time>
      </trkpt>
      <trkpt lat="44.33462" lon="2.59695">
        <ele>577.743</ele>
        <time>2013-01-24T09:48:19Z</time>
      </trkpt>
      <trkpt lat="44.33463" lon="2.59689">
        <ele>577.503</ele>
        <time>2013-01-24T09:48:21Z</time>
      </trkpt>
      <trkpt lat="44.33464" lon="2.59682">
        <ele>576.952</ele>
        <time>2013-01-24T09:48:23Z</time>
      </trkpt>
      <trkpt lat="44.33472" lon="2.59675">
        <ele>574.091</ele>
        <time>2013-01-24T09:48:27Z</time>
      </trkpt>
      <trkpt lat="44.33478" lon="2.59655">
        <ele>572.712</ele>
        <time>2013-01-24T09:48:32Z</time>
      </trkpt>
      <trkpt lat="44.3348" lon="2.59638">
        <ele>572.693</ele>
        <time>2013-01-24T09:48:37Z</time>
      </trkpt>
      <trkpt lat="44.33479" lon="2.59633">
        <ele>574.254</ele>
        <time>2013-01-24T09:48:40Z</time>
      </trkpt>
      <trkpt lat="44.33474" lon="2.59615">
        <ele>575.154</ele>
        <time>2013-01-24T09:48:46Z</time>
      </trkpt>
      <trkpt lat="44.33475" lon="2.59603">
        <ele>575.215</ele>
        <time>2013-01-24T09:48:50Z</time>
      </trkpt>
      <trkpt lat="44.33471" lon="2.59589">
        <ele>577.805</ele>
        <time>2013-01-24T09:48:55Z</time>
      </trkpt>
      <trkpt lat="44.33468" lon="2.59578">
        <ele>580.135</ele>
        <time>2013-01-24T09:48:59Z</time>
      </trkpt>
      <trkpt lat="44.33466" lon="2.59569">
        <ele>581.235</ele>
        <time>2013-01-24T09:49:02Z</time>
      </trkpt>
      <trkpt lat="44.33461" lon="2.5956">
        <ele>584.516</ele>
        <time>2013-01-24T09:49:07Z</time>
      </trkpt>
      <trkpt lat="44.33455" lon="2.59553">
        <ele>586.236</ele>
        <time>2013-01-24T09:49:11Z</time>
      </trkpt>
      <trkpt lat="44.33405" lon="2.59566">
        <ele>588.106</ele>
        <time>2013-01-24T09:49:17Z</time>
      </trkpt>
      <trkpt lat="44.33401" lon="2.59553">
        <ele>591.146</ele>
        <time>2013-01-24T09:49:22Z</time>
      </trkpt>
      <trkpt lat="44.334" lon="2.5955">
        <ele>591.576</ele>
        <time>2013-01-24T09:49:23Z</time>
      </trkpt>
      <trkpt lat="44.33397" lon="2.59542">
        <ele>589.544</ele>
        <time>2013-01-24T09:49:28Z</time>
      </trkpt>
      <trkpt lat="44.33393" lon="2.59535">
        <ele>585.683</ele>
        <time>2013-01-24T09:49:34Z</time>
      </trkpt>
      <trkpt lat="44.3338" lon="2.59479">
        <ele>582.692</ele>
        <time>2013-01-24T09:49:38Z</time>
      </trkpt>
      <trkpt lat="44.33379" lon="2.59469">
        <ele>582.823</ele>
        <time>2013-01-24T09:49:43Z</time>
      </trkpt>
      <trkpt lat="44.33376" lon="2.59453">
        <ele>583.604</ele>
        <time>2013-01-24T09:49:48Z</time>
      </trkpt>
      <trkpt lat="44.33371" lon="2.59437">
        <ele>582.213</ele>
        <time>2013-01-24T09:49:54Z</time>
      </trkpt>
      <trkpt lat="44.33368" lon="2.59425">
        <ele>582.473</ele>
        <time>2013-01-24T09:49:59Z</time>
      </trkpt>
      <trkpt lat="44.33368" lon="2.59423">
        <ele>581.213</ele>
        <time>2013-01-24T09:50:00Z</time>
      </trkpt>
      <trkpt lat="44.33415" lon="2.59376">
        <ele>574.512</ele>
        <time>2013-01-24T09:50:06Z</time>
      </trkpt>
      <trkpt lat="44.33364" lon="2.59417">
        <ele>573.922</ele>
        <time>2013-01-24T09:50:07Z</time>
      </trkpt>
      <trkpt lat="44.33361" lon="2.59413">
        <ele>570.931</ele>
        <time>2013-01-24T09:50:13Z</time>
      </trkpt>
      <trkpt lat="44.33361" lon="2.59413">
        <ele>571.602</ele>
        <time>2013-01-24T09:50:14Z</time>
      </trkpt>
      <trkpt lat="44.33418" lon="2.59333">
        <ele>570.302</ele>
        <time>2013-01-24T09:50:19Z</time>
      </trkpt>
      <trkpt lat="44.33417" lon="2.59329">
        <ele>570.892</ele>
        <time>2013-01-24T09:50:20Z</time>
      </trkpt>
      <trkpt lat="44.3342" lon="2.59303">
        <ele>572.804</ele>
        <time>2013-01-24T09:50:26Z</time>
      </trkpt>
      <trkpt lat="44.33422" lon="2.5929">
        <ele>574.305</ele>
        <time>2013-01-24T09:50:30Z</time>
      </trkpt>
      <trkpt lat="44.33421" lon="2.59286">
        <ele>574.515</ele>
        <time>2013-01-24T09:50:31Z</time>
      </trkpt>
      <trkpt lat="44.33423" lon="2.59272">
        <ele>574.224</ele>
        <time>2013-01-24T09:50:36Z</time>
      </trkpt>
      <trkpt lat="44.33421" lon="2.59246">
        <ele>569.712</ele>
        <time>2013-01-24T09:50:42Z</time>
      </trkpt>
      <trkpt lat="44.33421" lon="2.59243">
        <ele>570.272</ele>
        <time>2013-01-24T09:50:43Z</time>
      </trkpt>
      <trkpt lat="44.33473" lon="2.59217">
        <ele>568.861</ele>
        <time>2013-01-24T09:50:49Z</time>
      </trkpt>
      <trkpt lat="44.33472" lon="2.59211">
        <ele>567.521</ele>
        <time>2013-01-24T09:50:51Z</time>
      </trkpt>
      <trkpt lat="44.33471" lon="2.59198">
        <ele>565.252</ele>
        <time>2013-01-24T09:50:57Z</time>
      </trkpt>
      <trkpt lat="44.33471" lon="2.59175">
        <ele>566.713</ele>
        <time>2013-01-24T09:51:03Z</time>
      </trkpt>
      <trkpt lat="44.33471" lon="2.59159">
        <ele>565.412</ele>
        <time>2013-01-24T09:51:08Z</time>
      </trkpt>
      <trkpt lat="44.33471" lon="2.59143">
        <ele>563.263</ele>
        <time>2013-01-24T09:51:13Z</time>
      </trkpt>
      <trkpt lat="44.33473" lon="2.59126">
        <ele>563.153</ele>
        <time>2013-01-24T09:51:18Z</time>
      </trkpt>
      <trkpt lat="44.33474" lon="2.59109">
        <ele>562.384</ele>
        <time>2013-01-24T09:51:22Z</time>
      </trkpt>
      <trkpt lat="44.33475" lon="2.59088">
        <ele>561.712</ele>
        <time>2013-01-24T09:51:28Z</time>
      </trkpt>
      <trkpt lat="44.33477" lon="2.59068">
        <ele>560.852</ele>
        <time>2013-01-24T09:51:33Z</time>
      </trkpt>
      <trkpt lat="44.33477" lon="2.59059">
        <ele>561.553</ele>
        <time>2013-01-24T09:51:36Z</time>
      </trkpt>
      <trkpt lat="44.33479" lon="2.59051">
        <ele>563.223</ele>
        <time>2013-01-24T09:51:40Z</time>
      </trkpt>
      <trkpt lat="44.33482" lon="2.59036">
        <ele>564.662</ele>
        <time>2013-01-24T09:51:46Z</time>
      </trkpt>
      <trkpt lat="44.33487" lon="2.59026">
        <ele>565.002</ele>
        <time>2013-01-24T09:51:50Z</time>
      </trkpt>
      <trkpt lat="44.33494" lon="2.5901">
        <ele>563.192</ele>
        <time>2013-01-24T09:51:56Z</time>
      </trkpt>
      <trkpt lat="44.33503" lon="2.58991">
        <ele>562.673</ele>
        <time>2013-01-24T09:52:02Z</time>
      </trkpt>
      <trkpt lat="44.33513" lon="2.58971">
        <ele>562.183</ele>
        <time>2013-01-24T09:52:07Z</time>
      </trkpt>
      <trkpt lat="44.3352" lon="2.58953">
        <ele>561.973</ele>
        <time>2013-01-24T09:52:12Z</time>
      </trkpt>
      <trkpt lat="44.33526" lon="2.58937">
        <ele>560.012</ele>
        <time>2013-01-24T09:52:17Z</time>
      </trkpt>
      <trkpt lat="44.33533" lon="2.58921">
        <ele>559.172</ele>
        <time>2013-01-24T09:52:22Z</time>
      </trkpt>
      <trkpt lat="44.33538" lon="2.58908">
        <ele>558.852</ele>
        <time>2013-01-24T09:52:27Z</time>
      </trkpt>
      <trkpt lat="44.33542" lon="2.58899">
        <ele>557.792</ele>
        <time>2013-01-24T09:52:31Z</time>
      </trkpt>
      <trkpt lat="44.33548" lon="2.58889">
        <ele>555.662</ele>
        <time>2013-01-24T09:52:36Z</time>
      </trkpt>
      <trkpt lat="44.33554" lon="2.58878">
        <ele>550.809</ele>
        <time>2013-01-24T09:52:41Z</time>
      </trkpt>
      <trkpt lat="44.3356" lon="2.58868">
        <ele>547.57</ele>
        <time>2013-01-24T09:52:46Z</time>
      </trkpt>
      <trkpt lat="44.33561" lon="2.58867">
        <ele>547.09</ele>
        <time>2013-01-24T09:52:47Z</time>
      </trkpt>
      <trkpt lat="44.33564" lon="2.58863">
        <ele>545.43</ele>
        <time>2013-01-24T09:52:52Z</time>
      </trkpt>
      <trkpt lat="44.33567" lon="2.58857">
        <ele>545.531</ele>
        <time>2013-01-24T09:52:57Z</time>
      </trkpt>
      <trkpt lat="44.33567" lon="2.58857">
        <ele>544.921</ele>
        <time>2013-01-24T09:53:03Z</time>
      </trkpt>
      <trkpt lat="44.33534" lon="2.58789">
        <ele>544.921</ele>
        <time>2013-01-24T09:53:04Z</time>
      </trkpt>
      <trkpt lat="44.33546" lon="2.58789">
        <ele>550.192</ele>
        <time>2013-01-24T09:53:13Z</time>
      </trkpt>
      <trkpt lat="44.33549" lon="2.58787">
        <ele>551.312</ele>
        <time>2013-01-24T09:53:15Z</time>
      </trkpt>
      <trkpt lat="44.33556" lon="2.58782">
        <ele>552.241</ele>
        <time>2013-01-24T09:53:21Z</time>
      </trkpt>
      <trkpt lat="44.33548" lon="2.58768">
        <ele>552.552</ele>
        <time>2013-01-24T09:53:26Z</time>
      </trkpt>
      <trkpt lat="44.33556" lon="2.58782">
        <ele>552.161</ele>
        <time>2013-01-24T09:53:31Z</time>
      </trkpt>
      <trkpt lat="44.33556" lon="2.58782">
        <ele>551.731</ele>
        <time>2013-01-24T09:53:32Z</time>
      </trkpt>
      <trkpt lat="44.33552" lon="2.58775">
        <ele>548.31</ele>
        <time>2013-01-24T09:53:40Z</time>
      </trkpt>
      <trkpt lat="44.33556" lon="2.58781">
        <ele>547.04</ele>
        <time>2013-01-24T09:53:45Z</time>
      </trkpt>
      <trkpt lat="44.3356" lon="2.58788">
        <ele>545.231</ele>
        <time>2013-01-24T09:53:50Z</time>
      </trkpt>
      <trkpt lat="44.33556" lon="2.58782">
        <ele>544.211</ele>
        <time>2013-01-24T09:53:55Z</time>
      </trkpt>
      <trkpt lat="44.33556" lon="2.58782">
        <ele>542.791</ele>
        <time>2013-01-24T09:54:00Z</time>
      </trkpt>
      <trkpt lat="44.33557" lon="2.58783">
        <ele>542.231</ele>
        <time>2013-01-24T09:54:03Z</time>
      </trkpt>
      <trkpt lat="44.33564" lon="2.58795">
        <ele>541.691</ele>
        <time>2013-01-24T09:54:07Z</time>
      </trkpt>
      <trkpt lat="44.33568" lon="2.588">
        <ele>542.06</ele>
        <time>2013-01-24T09:54:09Z</time>
      </trkpt>
      <trkpt lat="44.33574" lon="2.58811">
        <ele>545.433</ele>
        <time>2013-01-24T09:54:14Z</time>
      </trkpt>
      <trkpt lat="44.33579" lon="2.58819">
        <ele>547.693</ele>
        <time>2013-01-24T09:54:18Z</time>
      </trkpt>
      <trkpt lat="44.3362" lon="2.58843">
        <ele>549.293</ele>
        <time>2013-01-24T09:54:21Z</time>
      </trkpt>
      <trkpt lat="44.3364" lon="2.58841">
        <ele>551.914</ele>
        <time>2013-01-24T09:54:25Z</time>
      </trkpt>
      <trkpt lat="44.33653" lon="2.58837">
        <ele>555.235</ele>
        <time>2013-01-24T09:54:30Z</time>
      </trkpt>
      <trkpt lat="44.33669" lon="2.58831">
        <ele>559.476</ele>
        <time>2013-01-24T09:54:35Z</time>
      </trkpt>
      <trkpt lat="44.33689" lon="2.5882">
        <ele>560.466</ele>
        <time>2013-01-24T09:54:39Z</time>
      </trkpt>
      <trkpt lat="44.33706" lon="2.58802">
        <ele>558.544</ele>
        <time>2013-01-24T09:54:43Z</time>
      </trkpt>
      <trkpt lat="44.33723" lon="2.58783">
        <ele>554.642</ele>
        <time>2013-01-24T09:54:49Z</time>
      </trkpt>
      <trkpt lat="44.33735" lon="2.58769">
        <ele>553.173</ele>
        <time>2013-01-24T09:54:55Z</time>
      </trkpt>
      <trkpt lat="44.33745" lon="2.58761">
        <ele>551.843</ele>
        <time>2013-01-24T09:55:00Z</time>
      </trkpt>
      <trkpt lat="44.33756" lon="2.58753">
        <ele>552.163</ele>
        <time>2013-01-24T09:55:05Z</time>
      </trkpt>
      <trkpt lat="44.33734" lon="2.58657">
        <ele>552.133</ele>
        <time>2013-01-24T09:55:10Z</time>
      </trkpt>
      <trkpt lat="44.33739" lon="2.58643">
        <ele>553.553</ele>
        <time>2013-01-24T09:55:14Z</time>
      </trkpt>
      <trkpt lat="44.33745" lon="2.58624">
        <ele>553.373</ele>
        <time>2013-01-24T09:55:19Z</time>
      </trkpt>
      <trkpt lat="44.33751" lon="2.58612">
        <ele>552.722</ele>
        <time>2013-01-24T09:55:23Z</time>
      </trkpt>
      <trkpt lat="44.33762" lon="2.58595">
        <ele>553.842</ele>
        <time>2013-01-24T09:55:28Z</time>
      </trkpt>
      <trkpt lat="44.33771" lon="2.58581">
        <ele>553.462</ele>
        <time>2013-01-24T09:55:33Z</time>
      </trkpt>
      <trkpt lat="44.33779" lon="2.58565">
        <ele>557.714</ele>
        <time>2013-01-24T09:55:38Z</time>
      </trkpt>
      <trkpt lat="44.33794" lon="2.5855">
        <ele>559.533</ele>
        <time>2013-01-24T09:55:44Z</time>
      </trkpt>
      <trkpt lat="44.33805" lon="2.58535">
        <ele>560.823</ele>
        <time>2013-01-24T09:55:49Z</time>
      </trkpt>
      <trkpt lat="44.33814" lon="2.58525">
        <ele>561.493</ele>
        <time>2013-01-24T09:55:53Z</time>
      </trkpt>
      <trkpt lat="44.33824" lon="2.58517">
        <ele>560.453</ele>
        <time>2013-01-24T09:55:58Z</time>
      </trkpt>
      <trkpt lat="44.3387" lon="2.58571">
        <ele>559.492</ele>
        <time>2013-01-24T09:56:03Z</time>
      </trkpt>
      <trkpt lat="44.33878" lon="2.58563">
        <ele>555.581</ele>
        <time>2013-01-24T09:56:07Z</time>
      </trkpt>
      <trkpt lat="44.33878" lon="2.58563">
        <ele>553.601</ele>
        <time>2013-01-24T09:56:11Z</time>
      </trkpt>
      <trkpt lat="44.33887" lon="2.58562">
        <ele>552.921</ele>
        <time>2013-01-24T09:56:15Z</time>
      </trkpt>
      <trkpt lat="44.33893" lon="2.58561">
        <ele>550.561</ele>
        <time>2013-01-24T09:56:19Z</time>
      </trkpt>
      <trkpt lat="44.33902" lon="2.58565">
        <ele>547.04</ele>
        <time>2013-01-24T09:56:23Z</time>
      </trkpt>
      <trkpt lat="44.33909" lon="2.58571">
        <ele>542.309</ele>
        <time>2013-01-24T09:56:27Z</time>
      </trkpt>
      <trkpt lat="44.33915" lon="2.58576">
        <ele>537.899</ele>
        <time>2013-01-24T09:56:31Z</time>
      </trkpt>
      <trkpt lat="44.33921" lon="2.58587">
        <ele>536.19</ele>
        <time>2013-01-24T09:56:36Z</time>
      </trkpt>
      <trkpt lat="44.33927" lon="2.58598">
        <ele>537.072</ele>
        <time>2013-01-24T09:56:41Z</time>
      </trkpt>
      <trkpt lat="44.33932" lon="2.58608">
        <ele>537.002</ele>
        <time>2013-01-24T09:56:46Z</time>
      </trkpt>
      <trkpt lat="44.33938" lon="2.58619">
        <ele>537.592</ele>
        <time>2013-01-24T09:56:51Z</time>
      </trkpt>
      <trkpt lat="44.33943" lon="2.58628">
        <ele>539.253</ele>
        <time>2013-01-24T09:56:55Z</time>
      </trkpt>
      <trkpt lat="44.33948" lon="2.58639">
        <ele>538.702</ele>
        <time>2013-01-24T09:56:59Z</time>
      </trkpt>
      <trkpt lat="44.33954" lon="2.58652">
        <ele>536.311</ele>
        <time>2013-01-24T09:57:03Z</time>
      </trkpt>
      <trkpt lat="44.33966" lon="2.58665">
        <ele>536.951</ele>
        <time>2013-01-24T09:57:07Z</time>
      </trkpt>
      <trkpt lat="44.33979" lon="2.58681">
        <ele>538.872</ele>
        <time>2013-01-24T09:57:12Z</time>
      </trkpt>
      <trkpt lat="44.3399" lon="2.58688">
        <ele>539.672</ele>
        <time>2013-01-24T09:57:16Z</time>
      </trkpt>
      <trkpt lat="44.34008" lon="2.58697">
        <ele>539.663</ele>
        <time>2013-01-24T09:57:21Z</time>
      </trkpt>
      <trkpt lat="44.34031" lon="2.58701">
        <ele>536.222</ele>
        <time>2013-01-24T09:57:26Z</time>
      </trkpt>
      <trkpt lat="44.34051" lon="2.58693">
        <ele>536.333</ele>
        <time>2013-01-24T09:57:31Z</time>
      </trkpt>
      <trkpt lat="44.34072" lon="2.58674">
        <ele>536.634</ele>
        <time>2013-01-24T09:57:36Z</time>
      </trkpt>
      <trkpt lat="44.34086" lon="2.58652">
        <ele>537.545</ele>
        <time>2013-01-24T09:57:41Z</time>
      </trkpt>
      <trkpt lat="44.34097" lon="2.58631">
        <ele>536.893</ele>
        <time>2013-01-24T09:57:46Z</time>
      </trkpt>
      <trkpt lat="44.34106" lon="2.58609">
        <ele>533.742</ele>
        <time>2013-01-24T09:57:52Z</time>
      </trkpt>
      <trkpt lat="44.34115" lon="2.58591">
        <ele>532.612</ele>
        <time>2013-01-24T09:57:58Z</time>
      </trkpt>
      <trkpt lat="44.3412" lon="2.58572">
        <ele>529.942</ele>
        <time>2013-01-24T09:58:03Z</time>
      </trkpt>
      <trkpt lat="44.34125" lon="2.58559">
        <ele>529.133</ele>
        <time>2013-01-24T09:58:09Z</time>
      </trkpt>
    </trkseg>
  </trk>
</gpx>